Portsmouth, Virginia - KPWR: Monthly Data Portsmouth Weather Records Service - Portsmouth, Virginia



LOCAL CLIMATOLOGICAL DATA: This Month's Data
[updated each morning between 7AM and 9AM]
Station: Portsmouth, Virginia - KPWR Latitude: 36° 48' 04" N Longitude: 76° 19' 37" W Elevation (ground): 13 ft. Time Zone: Eastern

BE SURE TO RELOAD/REFRESH THIS SCREEN FOR DAILY UPDATES BY RIGHT-CLICKING THE BACKGROUND The data in this frame and listed below are final adjusted site data for the time period.


-----------------------------------------------------------------------------------------------------------------------------------------------------------------------------------
THURSDAY		Temp	Hi	Low	Out	Dew	Wind	Wind	Wind	Hi	Hi	Wind	Heat	THW			Rain	Heat	Cool	In 	In	In 	In 	Wind	Wind	ISS 	Arc.
Date		Time	Out	Temp	Temp	Hum	Pt.	Speed	Dir	Run	Speed	Dir	Chill	Index	Index	Bar  	Rain	Rate	D-D 	D-D 	Temp	Hum	Dew	Heat	Samp	Tx 	Recept	Int.
08/01/19	1:00 a	72.0	72.6	72.0	98	71.4	4.0	SSE	4.00	11.0	ESE	72.0	75.3	75.3	30.045	0.02	0.09	0.000	0.292	87.2	33	54.6	85.9	1403	1	100.0	60
08/01/19	2:00 a	71.6	72.0	71.6	98	71.0	4.0	SW	4.00	14.0	WSW	71.6	74.9	74.9	30.041	0.00	0.00	0.000	0.275	85.4	32	52.2	84.0	1405	1	100.0	60
08/01/19	3:00 a	71.0	71.6	71.0	98	70.4	5.0	WSW	5.00	13.0	WNW	71.0	74.3	74.3	30.038	0.00	0.00	0.000	0.250	85.7	33	53.3	84.6	1405	1	100.0	60
08/01/19	4:00 a	70.0	71.0	70.0	99	69.7	4.0	W	4.00	11.0	W	70.0	73.3	73.3	30.026	0.00	0.00	0.000	0.208	85.3	34	53.8	84.3	1405	1	100.0	60
08/01/19	5:00 a	69.7	70.0	69.7	99	69.4	4.0	W	4.00	11.0	WSW	69.7	72.8	72.8	30.014	0.01	0.00	0.000	0.196	83.5	33	51.4	82.2	1405	1	100.0	60
08/01/19	6:00 a	69.2	69.7	69.2	99	68.9	0.0	NW	0.00	5.0	NW	69.2	72.1	72.1	30.023	0.00	0.00	0.000	0.175	83.6	34	52.3	82.5	1405	1	100.0	60
08/01/19	7:00 a	69.6	69.6	68.8	100	69.6	0.0	NW	0.00	6.0	NW	69.6	72.9	72.9	30.052	0.00	0.00	0.000	0.192	83.7	35	53.1	82.8	1405	1	100.0	60
08/01/19	8:00 a	71.7	71.8	69.6	100	71.7	4.0	NW	4.00	7.0	NW	71.7	75.3	75.3	30.066	0.00	0.00	0.000	0.279	82.5	33	50.5	81.0	1405	1	100.0	60
08/01/19	9:00 a	74.3	74.3	71.8	98	73.7	5.0	NNW	5.00	10.0	NNW	74.3	77.8	77.8	30.077	0.00	0.00	0.000	0.388	83.5	34	52.2	82.4	1404	1	100.0	60
08/01/19	10:00 a	76.9	76.9	74.2	94	75.0	4.0	NE	4.00	7.0	NE	76.9	81.3	81.3	30.088	0.00	0.00	0.000	0.496	84.5	34	53.0	83.6	1405	1	100.0	60
08/01/19	11:00 a	80.7	80.7	76.9	83	75.1	5.0	S	5.00	10.0	SSE	80.7	86.6	86.6	30.090	0.00	0.00	0.000	0.654	85.5	35	54.7	84.8	1405	1	100.0	60
08/01/19	12:00 p	82.7	82.7	80.7	79	75.5	5.0	WSW	5.00	12.0	SSW	82.7	90.6	90.6	30.096	0.00	0.00	0.000	0.737	86.6	32	53.2	85.2	1405	1	100.0	60
08/01/19	1:00 p	85.2	85.2	82.7	70	74.3	5.0	S	5.00	12.0	WSW	85.2	93.4	93.4	30.088	0.00	0.00	0.000	0.842	88.6	36	58.2	88.0	1405	1	100.0	60
08/01/19	2:00 p	87.0	87.0	85.2	68	75.2	4.0	S	4.00	11.0	SSW	87.0	96.7	96.7	30.073	0.00	0.00	0.000	0.917	89.6	30	54.1	88.2	1405	1	100.0	60
08/01/19	3:00 p	88.7	88.7	87.0	67	76.3	5.0	WNW	5.00	14.0	NE	88.7	99.8	99.8	30.058	0.00	0.00	0.000	0.987	91.5	36	60.8	92.3	1405	1	100.0	60
08/01/19	4:00 p	87.9	88.8	87.8	61	72.8	5.0	ENE	5.00	11.0	ENE	87.9	95.2	95.2	30.030	0.00	0.00	0.000	0.954	91.4	29	54.7	90.4	1405	1	100.0	60
08/01/19	5:00 p	87.6	88.3	87.6	68	75.7	6.0	NE	6.00	15.0	ENE	87.6	97.6	97.6	30.025	0.00	0.00	0.000	0.942	92.3	35	60.7	93.0	1405	1	100.0	60
08/01/19	6:00 p	87.9	87.9	87.6	70	76.9	6.0	SSE	6.00	15.0	SSE	87.9	98.9	98.9	30.010	0.00	0.00	0.000	0.954	91.7	28	54.0	90.4	1405	1	100.0	60
08/01/19	7:00 p	87.2	87.9	87.2	72	77.1	6.0	SSE	6.00	15.0	SSE	87.2	98.7	98.7	30.022	0.00	0.00	0.000	0.925	92.7	32	58.5	92.8	1405	1	100.0	60
08/01/19	8:00 p	84.6	87.1	84.6	72	74.6	5.0	SSE	5.00	12.0	S	84.6	92.8	92.8	30.061	0.00	0.00	0.000	0.817	90.7	28	53.1	89.2	1405	1	100.0	60
08/01/19	9:00 p	81.7	84.6	81.7	76	73.4	4.0	SSE	4.00	11.0	E	81.7	87.1	87.1	30.063	0.00	0.00	0.000	0.696	91.0	32	57.0	90.6	1405	1	100.0	60
08/01/19	10:00 p	79.4	81.7	79.4	81	73.1	5.0	SSE	5.00	12.0	S	79.4	83.7	83.7	30.062	0.00	0.00	0.000	0.600	89.4	29	53.0	87.6	1405	1	100.0	60
08/01/19	11:00 p	77.7	79.4	77.7	84	72.5	5.0	SSE	5.00	11.0	SSE	77.7	81.5	81.5	30.050	0.00	0.00	0.000	0.529	88.6	33	55.8	87.2	1405	1	100.0	60
08/02/19	12:00 a	76.6	77.7	76.6	87	72.4	4.0	SSE	4.00	11.0	SSE	76.6	80.2	80.2	30.066	0.00	0.00	0.000	0.483	88.0	33	55.3	86.4	1404	1	100.0	60
FRIDAY			Temp	Hi	Low	Out	Dew	Wind	Wind	Wind	Hi	Hi	Wind	Heat	THW			Rain	Heat	Cool	In 	In	In 	In 	Wind	Wind	ISS 	Arc.
Date		Time	Out	Temp	Temp	Hum	Pt.	Speed	Dir	Run	Speed	Dir	Chill	Index	Index	Bar  	Rain	Rate	D-D 	D-D 	Temp	Hum	Dew	Heat	Samp	Tx 	Recept	Int.
08/02/19	1:00 a	75.7	76.6	75.6	89	72.2	4.0	SSE	4.00	7.0	S	75.7	79.1	79.1	30.075	0.00	0.00	0.000	0.446	85.6	33	53.2	84.5	1404	1	100.0	60
08/02/19	2:00 a	75.6	75.7	75.5	91	72.8	0.0	SSE	0.00	7.0	SSE	75.6	79.1	79.1	30.068	0.00	0.00	0.000	0.442	85.9	34	54.3	85.0	1404	1	100.0	60
08/02/19	3:00 a	75.4	75.6	75.4	92	72.9	0.0	SSE	0.00	5.0	SSE	75.4	79.0	79.0	30.062	0.00	0.00	0.000	0.433	84.6	33	52.3	83.4	1405	1	100.0	60
08/02/19	4:00 a	75.3	75.4	75.3	93	73.1	0.0	SE	0.00	5.0	SE	75.3	78.9	78.9	30.048	0.00	0.00	0.000	0.429	84.3	34	52.9	83.4	1405	1	100.0	60
08/02/19	5:00 a	75.4	75.4	75.3	94	73.6	0.0	SE	0.00	5.0	SE	75.4	79.1	79.1	30.058	0.00	0.00	0.000	0.433	84.5	35	53.8	83.8	1405	1	100.0	60
08/02/19	6:00 a	75.3	75.5	75.2	84	70.1	6.0	SE	6.00	15.0	ENE	75.3	78.3	78.3	30.058	0.00	0.00	0.000	0.429	83.5	33	51.4	82.2	1405	1	100.0	60
08/02/19	7:00 a	75.6	75.6	75.3	87	71.5	4.0	NE	4.00	11.0	NE	75.6	78.9	78.9	30.048	0.00	0.00	0.000	0.442	83.5	34	52.2	82.4	1405	1	100.0	60
08/02/19	8:00 a	75.5	75.6	75.4	89	72.0	0.0	SE	0.00	4.0	SE	75.5	78.9	78.9	30.051	0.00	0.00	0.000	0.438	83.9	34	52.5	83.0	1405	1	100.0	60
08/02/19	9:00 a	76.2	76.2	75.4	88	72.4	4.0	NE	4.00	14.0	NE	76.2	79.7	79.7	30.079	0.00	0.00	0.000	0.467	83.2	34	51.9	81.9	1405	1	100.0	60
08/02/19	10:00 a	76.7	76.7	76.2	85	71.8	10.0	NE	10.00	17.0	NE	74.8	80.2	78.3	30.109	0.00	0.00	0.000	0.487	83.2	35	52.7	82.1	1405	1	100.0	60
08/02/19	11:00 a	78.1	78.1	76.7	86	73.6	7.0	NE	7.00	16.0	ENE	78.1	82.4	82.4	30.115	0.00	0.00	0.000	0.546	83.9	36	54.1	83.3	1405	1	100.0	60
08/02/19	12:00 p	78.3	78.4	78.1	92	75.8	6.0	NNW	6.00	14.0	NE	78.3	83.7	83.7	30.109	0.00	0.00	0.000	0.554	83.1	35	52.6	82.0	1405	1	100.0	60
08/02/19	1:00 p	80.9	80.9	78.3	81	74.5	7.0	NE	7.00	18.0	ENE	80.9	86.6	86.6	30.095	0.00	0.00	0.000	0.663	84.9	36	55.0	84.3	1404	1	100.0	60
08/02/19	2:00 p	82.5	82.5	80.9	78	74.9	7.0	ENE	7.00	17.0	ENE	82.5	89.7	89.7	30.086	0.00	0.00	0.000	0.729	84.4	36	54.5	83.9	1406	1	100.0	60
08/02/19	3:00 p	82.4	82.5	82.2	81	76.0	6.0	NE	6.00	14.0	NE	82.4	90.3	90.3	30.062	0.00	0.00	0.000	0.725	86.2	37	56.9	85.9	1404	1	100.0	60
08/02/19	4:00 p	83.4	83.4	83.4	78	75.8	7.0	SSE	7.00	18.0	S	83.4	92.1	92.1	30.044	0.00	0.00	0.000	0.767	84.7	35	54.0	83.9	1405	1	100.0	60
08/02/19	5:00 p	83.4	83.4	82.9	80	76.6	7.0	SSE	7.00	16.0	S	83.4	92.8	92.8	30.048	0.00	0.00	0.000	0.767	86.2	36	56.1	85.7	1405	1	100.0	60
08/02/19	6:00 p	82.7	82.9	82.5	77	74.8	7.0	SSE	7.00	16.0	SSE	82.7	89.9	89.9	30.042	0.00	0.00	0.000	0.737	85.0	34	53.5	84.0	1405	1	100.0	60
08/02/19	7:00 p	83.3	83.4	82.7	78	75.7	6.0	S	6.00	16.0	SSE	83.3	91.9	91.9	30.038	0.00	0.00	0.000	0.763	86.3	36	56.2	85.8	1405	1	100.0	60
08/02/19	8:00 p	81.0	83.3	81.0	76	72.7	5.0	SE	5.00	13.0	ESE	81.0	85.6	85.6	30.033	0.00	0.00	0.000	0.667	85.0	33	52.7	83.8	1405	1	100.0	60
08/02/19	9:00 p	78.4	81.0	78.4	79	71.3	4.0	S	4.00	10.0	SSE	78.4	81.8	81.8	30.044	0.00	0.00	0.000	0.558	85.3	35	54.5	84.5	1405	1	100.0	60
08/02/19	10:00 p	76.3	78.4	76.2	84	71.1	0.0	S	0.00	6.0	SSE	76.3	79.5	79.5	30.066	0.00	0.00	0.000	0.471	85.3	35	54.5	84.5	1405	1	100.0	60
08/02/19	11:00 p	75.0	76.3	75.0	87	70.9	0.0	SSE	0.00	6.0	SSE	75.0	78.2	78.2	30.060	0.00	0.00	0.000	0.417	83.7	35	53.1	82.8	1405	1	100.0	60
08/03/19	12:00 a	74.1	75.0	74.1	90	71.0	0.0	---	0.00	0.0	---	74.1	76.6	76.6	30.053	0.00	0.00	0.000	0.379	84.1	35	53.5	83.4	1405	1	100.0	60
SATURDAY		Temp	Hi	Low	Out	Dew	Wind	Wind	Wind	Hi	Hi	Wind	Heat	THW			Rain	Heat	Cool	In 	In	In 	In 	Wind	Wind	ISS 	Arc.
Date		Time	Out	Temp	Temp	Hum	Pt.	Speed	Dir	Run	Speed	Dir	Chill	Index	Index	Bar  	Rain	Rate	D-D 	D-D 	Temp	Hum	Dew	Heat	Samp	Tx 	Recept	Int.
08/03/19	1:00 a	73.7	74.1	73.6	92	71.2	0.0	SSE	0.00	4.0	SSE	73.7	76.3	76.3	30.051	0.00	0.00	0.000	0.362	84.1	35	53.5	83.4	1403	1	100.0	60
08/03/19	2:00 a	73.4	73.7	73.4	93	71.3	0.0	SSE	0.00	5.0	SSE	73.4	76.1	76.1	30.040	0.00	0.00	0.000	0.350	82.2	35	51.8	80.9	1405	1	100.0	60
08/03/19	3:00 a	73.4	73.4	73.3	94	71.6	0.0	SSE	0.00	5.0	SSE	73.4	76.2	76.2	30.025	0.00	0.00	0.000	0.350	82.8	35	52.3	81.6	1405	1	100.0	60
08/03/19	4:00 a	73.2	73.4	73.2	95	71.7	0.0	SSE	0.00	4.0	SSE	73.2	76.0	76.0	30.012	0.00	0.00	0.000	0.342	82.8	35	52.3	81.6	1405	1	100.0	60
08/03/19	5:00 a	73.1	73.2	73.0	96	71.9	0.0	SSE	0.00	4.0	SSE	73.1	76.1	76.1	30.014	0.00	0.00	0.000	0.337	82.7	36	53.0	81.6	1405	1	100.0	60
08/03/19	6:00 a	73.1	73.1	73.0	96	71.9	0.0	SSE	0.00	5.0	SSE	73.1	76.1	76.1	30.007	0.00	0.00	0.000	0.337	81.6	34	50.5	80.1	1405	1	100.0	60
08/03/19	7:00 a	73.1	73.1	73.0	97	72.2	0.0	SSE	0.00	4.0	SSE	73.1	76.2	76.2	30.007	0.00	0.00	0.000	0.337	82.2	35	51.8	80.9	1405	1	100.0	60
08/03/19	8:00 a	74.3	74.3	73.0	98	73.7	0.0	SSE	0.00	5.0	SSE	74.3	77.8	77.8	30.009	0.00	0.00	0.000	0.388	82.5	36	52.9	81.4	1405	1	100.0	60
08/03/19	9:00 a	77.0	77.0	74.3	96	75.8	4.0	ENE	4.00	7.0	ENE	77.0	81.6	81.6	30.012	0.00	0.00	0.000	0.500	81.1	34	50.1	79.5	1405	1	100.0	60
08/03/19	10:00 a	80.5	80.5	77.0	83	74.9	5.0	ENE	5.00	10.0	NE	80.5	86.2	86.2	30.008	0.00	0.00	0.000	0.646	83.4	35	52.9	82.4	1405	1	100.0	60
08/03/19	11:00 a	81.8	81.8	80.5	80	75.0	5.0	NE	5.00	12.0	ENE	81.8	88.4	88.4	29.999	0.00	0.00	0.000	0.700	82.9	36	53.2	81.9	1405	1	100.0	60
08/03/19	12:00 p	82.4	82.4	81.8	77	74.5	6.0	ENE	6.00	13.0	ENE	82.4	89.1	89.1	30.006	0.00	0.00	0.000	0.725	85.0	39	57.3	84.9	1405	1	100.0	60
08/03/19	1:00 p	84.1	84.1	82.4	70	73.3	3.0	ENE	3.00	14.0	NE	84.1	91.1	91.1	29.998	0.00	0.00	0.000	0.796	85.7	37	56.4	85.3	1405	1	100.0	60
08/03/19	2:00 p	84.8	85.1	84.1	71	74.3	6.0	NE	6.00	14.0	N	84.8	92.8	92.8	29.970	0.00	0.00	0.000	0.825	86.6	38	58.0	86.5	1405	1	100.0	60
08/03/19	3:00 p	85.1	85.1	84.7	65	72.0	6.0	ENE	6.00	16.0	NE	85.1	91.3	91.3	29.949	0.00	0.00	0.000	0.837	87.5	36	57.3	86.8	1405	1	100.0	60
08/03/19	4:00 p	85.4	85.5	85.1	68	73.6	5.0	NE	5.00	15.0	ENE	85.4	93.1	93.1	29.934	0.00	0.00	0.000	0.850	87.6	37	58.1	87.1	1404	1	100.0	60
08/03/19	5:00 p	85.7	85.8	85.4	67	73.5	5.0	NE	5.00	15.0	NE	85.7	93.5	93.5	29.926	0.00	0.00	0.000	0.862	88.4	35	57.3	87.4	1405	1	100.0	60
08/03/19	6:00 p	85.5	85.8	85.4	68	73.7	6.0	ENE	6.00	14.0	ENE	85.5	93.4	93.4	29.922	0.00	0.00	0.000	0.854	88.5	36	58.1	87.9	1405	1	100.0	60
08/03/19	7:00 p	85.6	85.6	85.4	65	72.5	5.0	SSE	5.00	14.0	S	85.6	92.5	92.5	29.913	0.00	0.00	0.000	0.858	88.0	33	55.3	86.4	1405	1	100.0	60
08/03/19	8:00 p	84.5	85.6	84.5	68	72.8	5.0	SSE	5.00	12.0	SE	84.5	91.2	91.2	29.918	0.00	0.00	0.000	0.813	85.9	34	54.3	85.0	1405	1	100.0	60
08/03/19	9:00 p	81.2	84.4	81.2	74	72.1	5.0	SSE	5.00	11.0	SSE	81.2	85.6	85.6	29.934	0.00	0.00	0.000	0.675	86.3	33	53.8	85.2	1405	1	100.0	60
08/03/19	10:00 p	78.4	81.2	78.4	81	72.1	5.0	SE	5.00	6.0	SE	78.4	82.1	82.1	29.942	0.00	0.00	0.000	0.558	84.8	34	53.3	83.8	1405	1	100.0	60
08/03/19	11:00 p	76.4	78.4	76.4	87	72.2	0.0	SE	0.00	5.0	SE	76.4	79.9	79.9	29.952	0.00	0.00	0.000	0.475	85.1	34	53.6	84.1	1405	1	100.0	60
SUNDAY			Temp	Hi	Low	Out	Dew	Wind	Wind	Wind	Hi	Hi	Wind	Heat	THW			Rain	Heat	Cool	In 	In	In 	In 	Wind	Wind	ISS 	Arc.
Date		Time	Out	Temp	Temp	Hum	Pt.	Speed	Dir	Run	Speed	Dir	Chill	Index	Index	Bar  	Rain	Rate	D-D 	D-D 	Temp	Hum	Dew	Heat	Samp	Tx 	Recept	Int.
08/04/19	12:00 a	74.6	76.4	74.6	90	71.5	0.0	SE	0.00	5.0	SE	74.6	77.6	77.6	29.953	0.00	0.00	0.000	0.400	83.6	33	51.5	82.3	1405	1	100.0	60
08/04/19	1:00 a	73.3	74.6	73.3	92	70.8	4.0	SE	4.00	7.0	S	73.3	75.9	75.9	29.946	0.00	0.00	0.000	0.346	83.8	34	52.4	82.8	1404	1	100.0	60
08/04/19	2:00 a	72.3	73.3	72.3	94	70.5	4.0	S	4.00	7.0	S	72.3	75.0	75.0	29.934	0.00	0.00	0.000	0.304	82.4	33	50.4	80.9	1405	1	100.0	60
08/04/19	3:00 a	71.5	72.3	71.5	95	70.0	0.0	SSE	0.00	7.0	SSE	71.5	74.3	74.3	29.930	0.00	0.00	0.000	0.271	82.3	34	51.1	80.9	1405	1	100.0	60
08/04/19	4:00 a	70.9	71.5	70.9	96	69.7	0.0	SSE	0.00	4.0	SSE	70.9	73.8	73.8	29.918	0.00	0.00	0.000	0.246	82.2	35	51.8	80.9	1405	1	100.0	60
08/04/19	5:00 a	70.3	70.9	70.3	97	69.4	0.0	SSE	0.00	4.0	SSE	70.3	73.3	73.3	29.918	0.00	0.00	0.000	0.221	82.1	35	51.7	80.8	1404	1	100.0	60
08/04/19	6:00 a	70.1	70.3	70.1	97	69.2	0.0	SSE	0.00	4.0	SSE	70.1	73.0	73.0	29.922	0.00	0.00	0.000	0.212	81.8	36	52.2	80.6	1405	1	100.0	60
08/04/19	7:00 a	70.6	70.6	69.9	98	70.0	0.0	SSE	0.00	5.0	SSE	70.6	73.8	73.8	29.936	0.00	0.00	0.000	0.233	81.8	36	52.2	80.6	1405	1	100.0	60
08/04/19	8:00 a	73.7	73.8	70.6	99	73.4	0.0	SSE	0.00	5.0	SSE	73.7	77.2	77.2	29.938	0.00	0.00	0.000	0.362	81.0	36	51.5	79.6	1405	1	100.0	60
08/04/19	9:00 a	78.9	78.9	73.8	92	76.4	5.0	WSW	5.00	11.0	W	78.9	84.9	84.9	29.938	0.00	0.00	0.000	0.579	81.3	35	51.0	79.9	1405	1	100.0	60
08/04/19	10:00 a	85.4	85.4	78.9	76	77.0	2.0	WNW	2.00	6.0	WNW	85.4	95.9	95.9	29.934	0.00	0.00	0.000	0.850	82.8	35	52.3	81.6	1405	1	100.0	60
08/04/19	11:00 a	87.0	87.0	85.4	68	75.2	2.0	WSW	2.00	9.0	WNW	87.0	96.7	96.7	29.935	0.00	0.00	0.000	0.917	85.1	36	55.1	84.5	1405	1	100.0	60
08/04/19	12:00 p	88.0	88.0	87.0	66	75.2	2.0	WSW	2.00	7.0	SSE	88.0	97.2	97.2	29.928	0.00	0.00	0.000	0.958	87.7	37	58.2	87.1	1405	1	100.0	60
08/04/19	1:00 p	89.3	89.3	87.9	67	76.9	1.0	WNW	1.00	5.0	WSW	89.3	101.7	101.7	29.922	0.00	0.00	0.000	1.013	87.3	37	57.8	86.9	1405	1	100.0	60
08/04/19	2:00 p	89.5	89.6	89.2	63	75.2	2.0	ENE	2.00	7.0	NW	89.5	100.1	100.1	29.898	0.00	0.00	0.000	1.021	89.2	35	58.0	88.6	1405	1	100.0	60
08/04/19	3:00 p	91.7	91.7	89.5	62	76.8	2.0	SW	2.00	8.0	S	91.7	105.6	105.6	29.873	0.00	0.00	0.000	1.112	89.1	37	59.4	89.1	1405	1	100.0	60
08/04/19	4:00 p	92.9	92.9	91.7	58	75.9	3.0	S	3.00	10.0	S	92.9	106.2	106.2	29.863	0.00	0.00	0.000	1.163	90.7	35	59.3	90.8	1405	1	100.0	60
08/04/19	5:00 p	81.6	93.3	81.6	71	71.3	7.0	S	7.00	39.0	NW	81.6	85.8	85.8	29.931	0.00	0.00	0.000	0.692	89.9	36	59.4	90.0	1405	1	100.0	60
08/04/19	6:00 p	70.0	81.5	69.9	95	68.5	6.0	ENE	6.00	22.0	WNW	70.0	72.5	72.5	29.934	0.76	7.68	0.000	0.208	88.7	34	56.7	87.6	1405	1	100.0	60
08/04/19	7:00 p	70.2	70.2	69.8	97	69.3	3.0	S	3.00	10.0	SSE	70.2	73.1	73.1	29.933	0.04	0.18	0.000	0.217	88.1	36	57.8	87.2	1404	1	100.0	60
08/04/19	8:00 p	70.3	70.4	70.2	98	69.7	2.0	S	2.00	8.0	SSE	70.3	73.5	73.5	29.926	0.10	0.29	0.000	0.221	84.7	34	53.2	83.7	1405	1	100.0	60
08/04/19	9:00 p	69.9	70.4	69.9	98	69.3	2.0	SSE	2.00	8.0	SE	69.9	73.0	73.0	29.928	0.03	0.10	0.000	0.204	85.6	35	54.8	84.9	1405	1	100.0	60
08/04/19	10:00 p	69.6	69.9	69.6	99	69.3	1.0	SSW	1.00	5.0	SW	69.6	72.7	72.7	29.942	0.00	0.00	0.000	0.192	83.3	34	52.0	82.1	1405	1	100.0	60
08/04/19	11:00 p	69.7	69.7	69.6	99	69.4	1.0	SW	1.00	6.0	SW	69.7	72.8	72.8	29.933	0.00	0.00	0.000	0.196	83.9	35	53.3	83.2	1405	1	100.0	60
08/05/19	12:00 a	69.9	69.9	69.7	100	69.9	1.0	SW	1.00	3.0	SW	69.9	73.3	73.3	29.924	0.00	0.00	0.000	0.204	82.1	34	50.9	80.7	1406	1	100.0	60
MONDAY			Temp	Hi	Low	Out	Dew	Wind	Wind	Wind	Hi	Hi	Wind	Heat	THW			Rain	Heat	Cool	In 	In	In 	In 	Wind	Wind	ISS 	Arc.
Date		Time	Out	Temp	Temp	Hum	Pt.	Speed	Dir	Run	Speed	Dir	Chill	Index	Index	Bar  	Rain	Rate	D-D 	D-D 	Temp	Hum	Dew	Heat	Samp	Tx 	Recept	Int.
08/05/19	1:00 a	70.3	70.3	69.8	100	70.3	4.0	NW	4.00	7.0	WNW	70.3	73.9	73.9	29.928	0.00	0.00	0.000	0.221	82.8	35	52.3	81.6	1403	1	100.0	60
08/05/19	2:00 a	70.5	70.5	70.3	100	70.5	4.0	W	4.00	7.0	W	70.5	74.1	74.1	29.926	0.00	0.00	0.000	0.229	82.9	36	53.2	81.9	1405	1	100.0	60
08/05/19	3:00 a	70.8	70.8	70.5	100	70.8	4.0	WNW	4.00	7.0	WNW	70.8	74.5	74.5	29.924	0.00	0.00	0.000	0.242	82.8	36	53.1	81.7	1405	1	100.0	60
08/05/19	4:00 a	71.0	71.0	70.8	100	71.0	4.0	SSE	4.00	11.0	SSE	71.0	74.7	74.7	29.933	0.00	0.00	0.000	0.250	82.7	36	53.0	81.6	1405	1	100.0	60
08/05/19	5:00 a	71.0	71.0	71.0	100	71.0	0.0	SSE	0.00	5.0	SSE	71.0	74.7	74.7	29.931	0.00	0.00	0.000	0.250	82.6	37	53.7	81.7	1405	1	100.0	60
08/05/19	6:00 a	71.1	71.1	71.0	100	71.1	4.0	SE	4.00	5.0	SSE	71.1	74.8	74.8	29.941	0.00	0.00	0.000	0.254	80.9	36	51.4	79.5	1405	1	100.0	60
08/05/19	7:00 a	71.2	71.2	71.0	100	71.2	0.0	SE	0.00	5.0	SE	71.2	74.9	74.9	29.953	0.00	0.00	0.000	0.258	81.8	36	52.2	80.6	1404	1	100.0	60
08/05/19	8:00 a	71.9	71.9	71.1	100	71.9	4.0	SE	4.00	6.0	SE	71.9	75.5	75.5	29.959	0.00	0.00	0.000	0.288	82.0	37	53.2	80.9	1405	1	100.0	60
08/05/19	9:00 a	72.7	72.8	71.9	100	72.7	4.0	SE	4.00	6.0	SE	72.7	76.3	76.3	29.969	0.01	0.00	0.000	0.321	82.5	37	53.6	81.6	1405	1	100.0	60
08/05/19	10:00 a	72.7	72.9	72.6	100	72.7	4.0	N	4.00	6.0	SE	72.7	76.3	76.3	29.977	0.01	0.00	0.000	0.321	81.0	35	50.8	79.5	1405	1	100.0	60
08/05/19	11:00 a	73.4	73.5	72.7	100	73.4	4.0	NNW	4.00	7.0	NNW	73.4	77.0	77.0	29.973	0.04	0.08	0.000	0.350	82.3	36	52.7	81.2	1405	1	100.0	60
08/05/19	12:00 p	75.2	75.2	73.4	100	75.2	4.0	W	4.00	7.0	NNW	75.2	79.1	79.1	29.963	0.01	0.04	0.000	0.425	83.3	38	55.0	82.8	1405	1	100.0	60
08/05/19	1:00 p	76.2	76.4	75.2	100	76.2	4.0	SW	4.00	6.0	W	76.2	80.7	80.7	29.947	0.00	0.00	0.000	0.467	82.1	37	53.2	81.1	1405	1	100.0	60
08/05/19	2:00 p	77.6	77.6	76.2	100	77.6	4.0	S	4.00	7.0	S	77.6	83.5	83.5	29.933	0.00	0.00	0.000	0.525	84.1	38	55.7	84.0	1405	1	100.0	60
08/05/19	3:00 p	78.1	78.1	76.9	97	77.2	4.0	ESE	4.00	10.0	ENE	78.1	84.0	84.0	29.921	0.00	0.00	0.000	0.546	83.5	36	53.7	82.7	1405	1	100.0	60
08/05/19	4:00 p	80.3	80.3	78.1	89	76.8	4.0	SSE	4.00	11.0	NE	80.3	87.3	87.3	29.915	0.00	0.00	0.000	0.638	85.8	38	57.3	85.6	1405	1	100.0	60
08/05/19	5:00 p	81.9	81.9	80.3	78	74.4	5.0	SSE	5.00	11.0	S	81.9	88.1	88.1	29.907	0.00	0.00	0.000	0.704	85.6	36	55.6	85.0	1405	1	100.0	60
08/05/19	6:00 p	82.4	82.5	81.8	72	72.5	5.0	SSE	5.00	12.0	SSE	82.4	87.7	87.7	29.906	0.00	0.00	0.000	0.725	85.3	37	56.1	84.9	1405	1	100.0	60
08/05/19	7:00 p	81.7	82.4	81.7	81	75.3	4.0	SE	4.00	14.0	ENE	81.7	88.5	88.5	29.908	0.00	0.00	0.000	0.696	86.5	37	57.1	86.2	1405	1	100.0	60
08/05/19	8:00 p	79.9	81.7	79.9	87	75.7	4.0	E	4.00	7.0	SSE	79.9	85.9	85.9	29.916	0.00	0.00	0.000	0.621	85.3	36	55.3	84.7	1405	1	100.0	60
08/05/19	9:00 p	77.3	79.9	77.3	92	74.8	4.0	SSW	4.00	7.0	SW	77.3	81.8	81.8	29.924	0.01	0.00	0.000	0.513	85.8	36	55.8	85.3	1404	1	100.0	60
08/05/19	10:00 p	74.9	77.3	74.9	95	73.4	4.0	SSW	4.00	12.0	SSW	74.9	78.5	78.5	29.934	0.03	0.04	0.000	0.413	84.0	35	53.4	83.3	1405	1	100.0	60
08/05/19	11:00 p	73.4	74.8	73.4	97	72.5	4.0	SW	4.00	6.0	SW	73.4	76.6	76.6	29.915	0.03	0.00	0.000	0.350	84.5	36	54.6	83.9	1405	1	100.0	60
08/06/19	12:00 a	72.9	73.4	72.9	98	72.3	0.0	SW	0.00	10.0	S	72.9	76.2	76.2	29.906	0.01	0.00	0.000	0.329	84.5	36	54.6	83.9	1405	1	100.0	60
TUESDAY			Temp	Hi	Low	Out	Dew	Wind	Wind	Wind	Hi	Hi	Wind	Heat	THW			Rain	Heat	Cool	In 	In	In 	In 	Wind	Wind	ISS 	Arc.
Date		Time	Out	Temp	Temp	Hum	Pt.	Speed	Dir	Run	Speed	Dir	Chill	Index	Index	Bar  	Rain	Rate	D-D 	D-D 	Temp	Hum	Dew	Heat	Samp	Tx 	Recept	Int.
08/06/19	1:00 a	72.4	72.9	72.4	98	71.8	4.0	ESE	4.00	7.0	SSE	72.4	75.7	75.7	29.897	0.00	0.00	0.000	0.308	82.9	35	52.4	81.7	1404	1	100.0	60
08/06/19	2:00 a	71.9	72.4	71.9	99	71.6	4.0	ESE	4.00	6.0	ESE	71.9	75.3	75.3	29.888	0.00	0.00	0.000	0.288	83.3	36	53.6	82.4	1405	1	100.0	60
08/06/19	3:00 a	71.4	71.9	71.4	99	71.1	4.0	ESE	4.00	6.0	ESE	71.4	74.9	74.9	29.881	0.00	0.00	0.000	0.267	83.2	36	53.5	82.3	1405	1	100.0	60
08/06/19	4:00 a	70.7	71.4	70.7	99	70.4	0.0	NW	0.00	5.0	NW	70.7	74.1	74.1	29.878	0.00	0.00	0.000	0.237	83.0	37	54.0	82.2	1405	1	100.0	60
08/06/19	5:00 a	70.5	70.7	70.4	99	70.2	4.0	NW	4.00	7.0	NW	70.5	73.9	73.9	29.889	0.00	0.00	0.000	0.229	81.5	36	52.0	80.2	1405	1	100.0	60
08/06/19	6:00 a	70.0	70.6	70.0	99	69.7	0.0	NNW	0.00	5.0	NNW	70.0	73.3	73.3	29.891	0.00	0.00	0.000	0.208	81.6	36	52.1	80.3	1405	1	100.0	60
08/06/19	7:00 a	69.3	70.0	69.3	99	69.0	0.0	NNW	0.00	4.0	NNW	69.3	72.2	72.2	29.893	0.00	0.00	0.000	0.179	81.8	37	53.0	80.7	1405	1	100.0	60
08/06/19	8:00 a	71.5	71.5	69.3	100	71.5	0.0	NNW	0.00	6.0	NNW	71.5	75.1	75.1	29.896	0.00	0.00	0.000	0.271	81.9	38	53.8	80.9	1405	1	100.0	60
08/06/19	9:00 a	74.3	74.3	71.5	100	74.3	5.0	NNW	5.00	10.0	NNW	74.3	78.0	78.0	29.906	0.00	0.00	0.000	0.388	81.1	36	51.6	79.7	1404	1	100.0	60
08/06/19	10:00 a	77.4	77.4	74.3	96	76.2	4.0	NE	4.00	7.0	NW	77.4	82.4	82.4	29.900	0.00	0.00	0.000	0.517	83.1	37	54.1	82.3	1405	1	100.0	60
08/06/19	11:00 a	80.7	80.7	77.5	85	75.8	5.0	S	5.00	11.0	S	80.7	87.1	87.1	29.896	0.00	0.00	0.000	0.654	83.0	36	53.3	82.0	1405	1	100.0	60
08/06/19	12:00 p	82.7	82.7	80.7	78	75.1	5.0	S	5.00	11.0	S	82.7	90.2	90.2	29.897	0.00	0.00	0.000	0.737	85.9	38	57.3	85.7	1405	1	100.0	60
08/06/19	1:00 p	84.6	84.6	82.6	76	76.2	5.0	SW	5.00	12.0	S	84.6	94.2	94.2	29.885	0.00	0.00	0.000	0.817	85.8	37	56.5	85.4	1405	1	100.0	60
08/06/19	2:00 p	86.1	86.1	84.6	73	76.4	5.0	S	5.00	12.0	SSW	86.1	96.6	96.6	29.869	0.00	0.00	0.000	0.879	89.1	39	60.9	89.8	1405	1	100.0	60
08/06/19	3:00 p	87.7	87.7	86.1	66	74.9	5.0	SW	5.00	14.0	SSE	87.7	96.9	96.9	29.855	0.00	0.00	0.000	0.946	88.5	37	58.9	88.2	1405	1	100.0	60
08/06/19	4:00 p	88.9	88.9	87.7	66	76.1	6.0	SW	6.00	16.0	SW	88.9	99.9	99.9	29.838	0.00	0.00	0.000	0.996	91.6	36	60.9	92.4	1405	1	100.0	60
08/06/19	5:00 p	89.0	89.0	88.9	62	74.3	6.0	SSE	6.00	15.0	SSE	89.0	98.2	98.2	29.832	0.00	0.00	0.000	1.000	90.0	35	58.7	89.9	1405	1	100.0	60
08/06/19	6:00 p	89.0	89.0	89.0	64	75.2	6.0	S	6.00	15.0	SW	89.0	99.1	99.1	29.831	0.00	0.00	0.000	1.000	92.5	34	60.0	93.0	1405	1	100.0	60
08/06/19	7:00 p	88.3	89.0	88.3	65	75.0	6.0	S	6.00	16.0	SE	88.3	97.6	97.6	29.830	0.00	0.00	0.000	0.971	90.6	34	58.4	90.5	1405	1	100.0	60
08/06/19	8:00 p	84.9	88.3	84.9	70	74.0	5.0	SW	5.00	14.0	SW	84.9	92.7	92.7	29.841	0.00	0.00	0.000	0.829	91.4	34	59.1	91.5	1405	1	100.0	60
08/06/19	9:00 p	81.6	84.9	81.6	76	73.3	5.0	SW	5.00	11.0	S	81.6	86.9	86.9	29.850	0.00	0.00	0.000	0.692	88.8	34	56.8	87.7	1405	1	100.0	60
08/06/19	10:00 p	79.1	81.6	79.1	82	73.1	5.0	SSE	5.00	12.0	S	79.1	83.3	83.3	29.867	0.00	0.00	0.000	0.587	88.6	33	55.8	87.2	1405	1	100.0	60
08/06/19	11:00 p	77.6	79.1	77.5	89	74.1	5.0	S	5.00	14.0	SSE	77.6	82.0	82.0	29.866	0.00	0.00	0.000	0.525	87.0	34	55.2	86.0	1405	1	100.0	60
08/07/19	12:00 a	76.8	77.5	76.7	92	74.3	5.0	SSE	5.00	12.0	SSE	76.8	80.9	80.9	29.869	0.00	0.00	0.000	0.492	87.2	34	55.4	86.1	1404	1	100.0	60
WEDNESDAY		Temp	Hi	Low	Out	Dew	Wind	Wind	Wind	Hi	Hi	Wind	Heat	THW			Rain	Heat	Cool	In 	In	In 	In 	Wind	Wind	ISS 	Arc.
Date		Time	Out	Temp	Temp	Hum	Pt.	Speed	Dir	Run	Speed	Dir	Chill	Index	Index	Bar  	Rain	Rate	D-D 	D-D 	Temp	Hum	Dew	Heat	Samp	Tx 	Recept	Int.
08/07/19	1:00 a	76.2	76.7	76.2	94	74.3	4.0	S	4.00	11.0	S	76.2	80.2	80.2	29.855	0.00	0.00	0.000	0.467	85.3	34	53.8	84.3	1403	1	100.0	60
08/07/19	2:00 a	75.9	76.2	75.8	95	74.4	5.0	SSW	5.00	13.0	WSW	75.9	79.9	79.9	29.856	0.00	0.00	0.000	0.454	85.9	35	55.1	85.2	1405	1	100.0	60
08/07/19	3:00 a	75.6	75.9	75.6	95	74.1	5.0	SSW	5.00	12.0	SW	75.6	79.5	79.5	29.851	0.00	0.00	0.000	0.442	84.0	34	52.6	83.1	1405	1	100.0	60
08/07/19	4:00 a	75.0	75.6	75.0	95	73.5	4.0	S	4.00	10.0	WSW	75.0	78.7	78.7	29.852	0.00	0.00	0.000	0.417	84.6	35	53.9	83.8	1405	1	100.0	60
08/07/19	5:00 a	74.4	75.0	74.4	96	73.2	4.0	SW	4.00	12.0	SW	74.4	77.8	77.8	29.853	0.00	0.00	0.000	0.392	84.7	36	54.8	84.1	1405	1	100.0	60
08/07/19	6:00 a	74.3	74.4	74.2	96	73.1	5.0	SW	5.00	12.0	SW	74.3	77.6	77.6	29.854	0.00	0.00	0.000	0.388	83.1	35	52.6	82.0	1405	1	100.0	60
08/07/19	7:00 a	74.4	74.4	74.2	97	73.5	5.0	SSW	5.00	12.0	WSW	74.4	77.8	77.8	29.867	0.00	0.00	0.000	0.392	83.6	36	53.8	82.9	1405	1	100.0	60
08/07/19	8:00 a	75.6	75.6	74.3	97	74.7	5.0	S	5.00	15.0	SW	75.6	79.6	79.6	29.875	0.00	0.00	0.000	0.442	83.9	36	54.1	83.3	1405	1	100.0	60
08/07/19	9:00 a	79.2	79.2	75.6	94	77.3	6.0	S	6.00	15.0	SSE	79.2	86.0	86.0	29.871	0.00	0.00	0.000	0.592	83.5	37	54.5	82.9	1405	1	100.0	60
08/07/19	10:00 a	84.8	84.8	79.3	84	79.4	6.0	SSW	6.00	14.0	SSE	84.8	97.6	97.6	29.865	0.00	0.00	0.000	0.825	84.7	36	54.8	84.1	1405	1	100.0	60
08/07/19	11:00 a	88.2	88.2	84.8	79	80.9	6.0	S	6.00	16.0	S	88.2	104.7	104.7	29.858	0.00	0.00	0.000	0.967	86.1	38	57.5	85.9	1405	1	100.0	60
08/07/19	12:00 p	89.8	89.8	88.2	74	80.4	7.0	S	7.00	19.0	SE	89.8	107.9	107.9	29.845	0.00	0.00	0.000	1.033	87.0	36	56.8	86.4	1405	1	100.0	60
08/07/19	1:00 p	89.7	89.8	89.6	73	79.9	10.0	S	10.00	21.0	SSE	89.6	106.8	106.7	29.831	0.00	0.00	0.000	1.029	88.9	38	60.0	89.1	1404	1	100.0	60
08/07/19	2:00 p	90.9	90.9	89.7	70	79.8	10.0	SSE	10.00	21.0	S	90.9	108.7	108.7	29.784	0.00	0.00	0.000	1.079	88.7	33	55.9	87.4	1405	1	100.0	60
08/07/19	3:00 p	91.7	91.9	90.9	68	79.6	10.0	S	10.00	20.0	S	91.7	109.9	109.9	29.761	0.00	0.00	0.000	1.112	90.8	39	62.4	92.2	1405	1	100.0	60
08/07/19	4:00 p	89.3	91.7	89.3	66	76.4	7.0	SSE	7.00	20.0	SE	89.3	101.1	101.1	29.736	0.00	0.00	0.000	1.013	89.6	36	59.1	89.6	1405	1	100.0	60
08/07/19	5:00 p	73.4	89.2	73.4	92	70.9	7.0	ENE	7.00	28.0	WNW	73.4	76.0	76.0	29.859	1.57	11.52	0.000	0.350	87.7	34	55.9	86.4	1405	1	100.0	60
08/07/19	6:00 p	71.1	73.4	71.1	98	70.5	5.0	SE	5.00	16.0	SSE	71.1	74.4	74.4	29.847	0.30	2.31	0.000	0.254	88.2	38	59.4	87.9	1405	1	100.0	60
08/07/19	7:00 p	70.7	71.1	70.7	99	70.4	5.0	SSE	5.00	13.0	SSE	70.7	74.1	74.1	29.815	0.01	0.04	0.000	0.237	85.7	36	55.7	85.1	1405	1	100.0	60
08/07/19	8:00 p	71.7	71.9	70.7	99	71.4	6.0	S	6.00	13.0	SSE	71.7	75.2	75.2	29.798	0.00	0.00	0.000	0.279	86.4	37	57.0	86.1	1405	1	100.0	60
08/07/19	9:00 p	70.6	71.7	70.5	99	70.3	5.0	SSE	5.00	13.0	S	70.6	74.0	74.0	29.802	0.00	0.00	0.000	0.233	84.3	35	53.7	83.6	1405	1	100.0	60
08/07/19	10:00 p	69.8	70.6	69.8	100	69.8	4.0	S	4.00	11.0	S	69.8	73.2	73.2	29.825	0.00	0.00	0.000	0.200	84.7	36	54.8	84.1	1405	1	100.0	60
08/07/19	11:00 p	69.4	69.8	69.4	100	69.4	4.0	SSW	4.00	7.0	S	69.4	72.5	72.5	29.822	0.00	0.00	0.000	0.183	83.6	35	53.1	82.7	1405	1	100.0	60
08/08/19	12:00 a	69.4	69.4	69.3	100	69.4	4.0	SSE	4.00	10.0	SSE	69.4	72.5	72.5	29.808	0.00	0.00	0.000	0.183	83.1	36	53.4	82.1	1405	1	100.0	60
THURSDAY		Temp	Hi	Low	Out	Dew	Wind	Wind	Wind	Hi	Hi	Wind	Heat	THW			Rain	Heat	Cool	In 	In	In 	In 	Wind	Wind	ISS 	Arc.
Date		Time	Out	Temp	Temp	Hum	Pt.	Speed	Dir	Run	Speed	Dir	Chill	Index	Index	Bar  	Rain	Rate	D-D 	D-D 	Temp	Hum	Dew	Heat	Samp	Tx 	Recept	Int.
08/08/19	1:00 a	70.0	70.1	69.4	100	70.0	5.0	SW	5.00	14.0	SW	70.0	73.5	73.5	29.802	0.00	0.00	0.000	0.208	83.3	37	54.3	82.6	1403	1	100.0	60
08/08/19	2:00 a	69.9	70.1	69.8	100	69.9	5.0	SW	5.00	12.0	SW	69.9	73.3	73.3	29.799	0.00	0.00	0.000	0.204	83.1	38	54.9	82.5	1406	1	100.0	60
08/08/19	3:00 a	70.0	70.0	69.9	100	70.0	5.0	SW	5.00	11.0	SW	70.0	73.5	73.5	29.786	0.00	0.00	0.000	0.208	81.3	37	52.5	80.1	1404	1	100.0	60
08/08/19	4:00 a	70.1	70.1	70.0	100	70.1	5.0	SW	5.00	12.0	WNW	70.1	73.6	73.6	29.792	0.00	0.00	0.000	0.212	81.8	37	53.0	80.7	1405	1	100.0	60
08/08/19	5:00 a	70.4	70.4	70.1	100	70.4	5.0	SW	5.00	10.0	NNW	70.4	74.0	74.0	29.763	0.00	0.00	0.000	0.225	81.8	38	53.7	80.8	1405	1	100.0	60
08/08/19	6:00 a	69.7	70.4	69.7	100	69.7	4.0	SW	4.00	6.0	SW	69.7	73.0	73.0	29.775	0.00	0.00	0.000	0.196	81.6	38	53.5	80.6	1405	1	100.0	60
08/08/19	7:00 a	69.8	69.8	69.5	100	69.8	4.0	SW	4.00	5.0	SW	69.8	73.2	73.2	29.787	0.00	0.00	0.000	0.200	81.5	39	54.2	80.5	1405	1	100.0	60
08/08/19	8:00 a	71.9	71.9	69.8	100	71.9	4.0	SW	4.00	7.0	SW	71.9	75.5	75.5	29.802	0.00	0.00	0.000	0.288	80.4	38	52.5	79.2	1396	1	100.0	60
08/08/19	9:00 a	74.7	74.7	71.9	100	74.7	5.0	SW	5.00	13.0	WSW	74.7	78.4	78.4	29.804	0.00	0.00	0.000	0.404	82.1	38	54.0	81.2	1405	1	100.0	60
08/08/19	10:00 a	76.9	76.9	74.7	100	76.9	5.0	W	5.00	13.0	W	76.9	82.0	82.0	29.807	0.00	0.00	0.000	0.496	83.7	36	53.9	83.0	1405	1	100.0	60
08/08/19	11:00 a	77.7	77.7	76.8	96	76.5	5.0	WNW	5.00	14.0	W	77.7	83.0	83.0	29.810	0.00	0.00	0.000	0.529	84.3	38	55.9	84.2	1405	1	100.0	60
08/08/19	12:00 p	80.4	80.4	77.7	91	77.5	5.0	SW	5.00	15.0	S	80.4	88.0	88.0	29.798	0.00	0.00	0.000	0.642	86.0	36	55.9	85.5	1405	1	100.0	60
08/08/19	1:00 p	83.9	83.9	80.4	81	77.4	5.0	WSW	5.00	14.0	WNW	83.9	94.5	94.5	29.784	0.00	0.00	0.000	0.788	86.9	39	59.0	87.0	1405	1	100.0	60
08/08/19	2:00 p	87.2	87.2	84.0	71	76.6	6.0	SW	6.00	17.0	SW	87.2	98.2	98.2	29.780	0.00	0.00	0.000	0.925	88.6	36	58.2	88.0	1405	1	100.0	60
08/08/19	3:00 p	88.9	88.9	87.2	65	75.6	6.0	WNW	6.00	17.0	WNW	88.9	99.3	99.3	29.767	0.00	0.00	0.000	0.996	89.5	39	61.3	90.3	1405	1	100.0	60
08/08/19	4:00 p	89.5	89.5	88.9	63	75.2	7.0	WSW	7.00	19.0	WSW	89.5	100.1	100.1	29.762	0.00	0.00	0.000	1.021	90.3	34	58.1	90.1	1404	1	100.0	60
08/08/19	5:00 p	89.8	89.9	89.5	61	74.6	6.0	WNW	6.00	16.0	SW	89.8	99.9	99.9	29.762	0.00	0.00	0.000	1.033	91.0	37	61.1	91.9	1406	1	100.0	60
08/08/19	6:00 p	90.2	90.2	89.8	61	74.9	5.0	WSW	5.00	16.0	SW	90.2	100.9	100.9	29.773	0.00	0.00	0.000	1.050	91.7	32	57.7	91.5	1404	1	100.0	60
08/08/19	7:00 p	89.9	90.2	89.9	60	74.2	6.0	WNW	6.00	15.0	NW	89.9	99.6	99.6	29.770	0.00	0.00	0.000	1.038	91.0	34	58.7	91.0	1405	1	100.0	60
08/08/19	8:00 p	88.0	89.9	88.0	65	74.8	4.0	WSW	4.00	12.0	WNW	88.0	96.8	96.8	29.772	0.00	0.00	0.000	0.958	91.4	31	56.5	90.9	1405	1	100.0	60
08/08/19	9:00 p	84.0	88.0	84.0	72	74.0	4.0	SW	4.00	10.0	SW	84.0	91.6	91.6	29.793	0.00	0.00	0.000	0.792	90.0	34	57.9	89.7	1405	1	100.0	60
08/08/19	10:00 p	80.9	84.0	80.9	78	73.4	4.0	SW	4.00	6.0	SW	80.9	85.9	85.9	29.809	0.00	0.00	0.000	0.663	89.4	33	56.5	88.5	1405	1	100.0	60
08/08/19	11:00 p	78.9	80.9	78.9	82	72.9	4.0	SW	4.00	10.0	SW	78.9	83.0	83.0	29.800	0.00	0.00	0.000	0.579	87.5	34	55.7	86.3	1405	1	100.0	60
08/09/19	12:00 a	77.4	79.0	77.4	82	71.5	4.0	SSW	4.00	7.0	SSW	77.4	80.8	80.8	29.790	0.00	0.00	0.000	0.517	87.7	34	55.9	86.4	1405	1	100.0	60
FRIDAY			Temp	Hi	Low	Out	Dew	Wind	Wind	Wind	Hi	Hi	Wind	Heat	THW			Rain	Heat	Cool	In 	In	In 	In 	Wind	Wind	ISS 	Arc.
Date		Time	Out	Temp	Temp	Hum	Pt.	Speed	Dir	Run	Speed	Dir	Chill	Index	Index	Bar  	Rain	Rate	D-D 	D-D 	Temp	Hum	Dew	Heat	Samp	Tx 	Recept	Int.
08/09/19	1:00 a	76.0	77.4	76.0	82	70.1	4.0	SW	4.00	10.0	SW	76.0	79.0	79.0	29.792	0.00	0.00	0.000	0.458	85.3	33	52.9	84.1	1404	1	100.0	60
08/09/19	2:00 a	75.7	76.1	75.7	82	69.8	5.0	W	5.00	12.0	W	75.7	78.6	78.6	29.796	0.00	0.00	0.000	0.446	85.7	34	54.1	84.8	1405	1	100.0	60
08/09/19	3:00 a	75.3	75.8	75.3	82	69.4	4.0	W	4.00	12.0	W	75.3	78.1	78.1	29.789	0.00	0.00	0.000	0.429	85.7	35	54.9	85.0	1405	1	100.0	60
08/09/19	4:00 a	74.0	75.3	74.0	85	69.2	4.0	S	4.00	11.0	SSE	74.0	76.2	76.2	29.782	0.00	0.00	0.000	0.375	83.5	34	52.2	82.4	1404	1	100.0	60
08/09/19	5:00 a	72.3	74.0	72.3	89	68.9	4.0	SW	4.00	6.0	SW	72.3	74.5	74.5	29.788	0.00	0.00	0.000	0.304	84.0	35	53.4	83.3	1405	1	100.0	60
08/09/19	6:00 a	71.3	72.3	71.3	91	68.5	0.0	SW	0.00	6.0	SW	71.3	73.6	73.6	29.783	0.00	0.00	0.000	0.263	83.9	35	53.3	83.2	1405	1	100.0	60
08/09/19	7:00 a	71.3	71.3	71.2	92	68.9	4.0	SW	4.00	6.0	SW	71.3	73.7	73.7	29.807	0.00	0.00	0.000	0.263	83.9	35	53.3	83.2	1405	1	100.0	60
08/09/19	8:00 a	72.2	72.2	71.2	93	70.1	4.0	SSW	4.00	10.0	SW	72.2	74.8	74.8	29.823	0.00	0.00	0.000	0.300	82.6	35	52.2	81.4	1405	1	100.0	60
08/09/19	9:00 a	76.4	76.4	72.2	84	71.2	5.0	W	5.00	12.0	WNW	76.4	79.7	79.7	29.834	0.00	0.00	0.000	0.475	83.7	35	53.1	82.8	1405	1	100.0	60
08/09/19	10:00 a	84.9	84.9	76.5	65	71.8	6.0	NW	6.00	14.0	NW	84.9	90.9	90.9	29.826	0.00	0.00	0.000	0.829	83.4	34	52.1	82.2	1405	1	100.0	60
08/09/19	11:00 a	85.6	85.6	84.9	63	71.6	6.0	NW	6.00	16.0	WNW	85.6	91.8	91.8	29.831	0.00	0.00	0.000	0.858	86.2	36	56.1	85.7	1405	1	100.0	60
08/09/19	12:00 p	86.7	86.7	85.6	59	70.7	5.0	W	5.00	13.0	W	86.7	92.6	92.6	29.816	0.00	0.00	0.000	0.904	86.8	34	55.1	85.8	1405	1	100.0	60
08/09/19	1:00 p	88.3	88.3	86.7	54	69.5	6.0	W	6.00	14.0	WSW	88.3	93.5	93.5	29.810	0.00	0.00	0.000	0.971	89.8	33	56.9	89.2	1405	1	100.0	60
08/09/19	2:00 p	89.2	89.2	88.3	52	69.3	7.0	W	7.00	16.0	W	89.2	94.7	94.7	29.797	0.00	0.00	0.000	1.008	89.8	34	57.7	89.4	1405	1	100.0	60
08/09/19	3:00 p	90.1	90.1	89.2	57	72.8	6.0	WNW	6.00	19.0	NW	90.1	98.6	98.6	29.783	0.00	0.00	0.000	1.046	92.4	30	56.5	91.9	1405	1	100.0	60
08/09/19	4:00 p	91.5	91.5	90.1	52	71.4	6.0	WSW	6.00	15.0	S	91.5	99.2	99.2	29.767	0.00	0.00	0.000	1.104	91.9	30	56.0	91.3	1405	1	100.0	60
08/09/19	5:00 p	92.3	92.3	91.5	52	72.1	6.0	SW	6.00	17.0	W	92.3	101.0	101.0	29.761	0.00	0.00	0.000	1.138	94.6	29	57.4	94.4	1405	1	100.0	60
08/09/19	6:00 p	85.5	92.3	85.5	67	73.3	7.0	SW	7.00	21.0	SW	85.5	93.0	93.0	29.777	0.00	0.00	0.000	0.854	92.3	30	56.4	91.8	1405	1	100.0	60
08/09/19	7:00 p	81.2	85.4	81.2	73	71.7	6.0	SSW	6.00	15.0	SSE	81.2	85.4	85.4	29.784	0.00	0.00	0.000	0.675	92.8	29	55.9	92.1	1404	1	100.0	60
08/09/19	8:00 p	78.9	81.2	78.8	77	71.1	5.0	S	5.00	12.0	S	78.9	82.2	82.2	29.788	0.00	0.00	0.000	0.579	90.1	33	57.1	89.7	1405	1	100.0	60
08/09/19	9:00 p	77.5	78.9	77.5	83	71.9	4.0	S	4.00	11.0	S	77.5	81.1	81.1	29.802	0.00	0.00	0.000	0.521	89.7	31	55.0	88.6	1405	1	100.0	60
08/09/19	10:00 p	76.2	77.5	76.2	86	71.7	5.0	S	5.00	11.0	SSE	76.2	79.5	79.5	29.828	0.00	0.00	0.000	0.467	87.9	33	55.2	86.3	1405	1	100.0	60
08/09/19	11:00 p	75.0	76.2	75.0	87	70.9	5.0	S	5.00	14.0	SSE	75.0	78.2	78.2	29.836	0.00	0.00	0.000	0.417	87.9	32	54.4	86.1	1405	1	100.0	60
08/10/19	12:00 a	73.9	75.0	73.8	88	70.1	5.0	SW	5.00	11.0	SW	73.9	76.2	76.2	29.834	0.00	0.00	0.000	0.371	86.4	33	53.9	85.3	1405	1	100.0	60
SATURDAY		Temp	Hi	Low	Out	Dew	Wind	Wind	Wind	Hi	Hi	Wind	Heat	THW			Rain	Heat	Cool	In 	In	In 	In 	Wind	Wind	ISS 	Arc.
Date		Time	Out	Temp	Temp	Hum	Pt.	Speed	Dir	Run	Speed	Dir	Chill	Index	Index	Bar  	Rain	Rate	D-D 	D-D 	Temp	Hum	Dew	Heat	Samp	Tx 	Recept	Int.
08/10/19	1:00 a	73.0	73.8	73.0	90	69.9	5.0	SW	5.00	12.0	WSW	73.0	75.5	75.5	29.830	0.00	0.00	0.000	0.333	86.7	34	55.0	85.7	1404	1	100.0	60
08/10/19	2:00 a	72.5	73.0	72.5	92	70.0	5.0	SW	5.00	12.0	WNW	72.5	75.0	75.0	29.840	0.00	0.00	0.000	0.313	85.0	33	52.7	83.8	1405	1	100.0	60
08/10/19	3:00 a	72.5	72.6	72.4	92	70.0	5.0	W	5.00	12.0	WSW	72.5	75.0	75.0	29.842	0.00	0.00	0.000	0.313	85.4	34	53.8	84.4	1405	1	100.0	60
08/10/19	4:00 a	72.2	72.5	72.2	93	70.1	4.0	W	4.00	7.0	W	72.2	74.8	74.8	29.857	0.00	0.00	0.000	0.300	85.3	34	53.8	84.3	1405	1	100.0	60
08/10/19	5:00 a	73.3	73.4	72.1	78	66.0	5.0	NNW	5.00	11.0	NNW	73.3	75.1	75.1	29.867	0.00	0.00	0.000	0.346	83.4	33	51.3	82.0	1405	1	100.0	60
08/10/19	6:00 a	73.9	74.0	73.3	73	64.7	5.0	NNW	5.00	10.0	NNW	73.9	75.6	75.6	29.875	0.00	0.00	0.000	0.371	83.9	34	52.5	83.0	1405	1	100.0	60
08/10/19	7:00 a	72.9	74.0	72.9	78	65.6	4.0	NNW	4.00	7.0	NNW	72.9	74.5	74.5	29.892	0.00	0.00	0.000	0.329	84.0	34	52.6	83.1	1404	1	100.0	60
08/10/19	8:00 a	73.7	73.7	72.6	79	66.8	5.0	NW	5.00	10.0	NW	73.7	75.6	75.6	29.900	0.00	0.00	0.000	0.362	84.0	35	53.4	83.3	1405	1	100.0	60
08/10/19	9:00 a	77.9	77.9	73.7	67	66.1	6.0	NW	6.00	15.0	NW	77.9	79.5	79.5	29.914	0.00	0.00	0.000	0.538	82.0	34	50.9	80.6	1405	1	100.0	60
08/10/19	10:00 a	82.7	82.7	77.9	51	62.7	7.0	NNW	7.00	15.0	NNW	82.7	83.9	83.9	29.920	0.00	0.00	0.000	0.737	84.3	34	52.9	83.4	1405	1	100.0	60
08/10/19	11:00 a	82.7	82.9	82.7	48	61.0	7.0	NNW	7.00	20.0	WNW	82.7	83.4	83.4	29.929	0.00	0.00	0.000	0.737	84.4	33	52.1	83.3	1405	1	100.0	60
08/10/19	12:00 p	82.8	82.8	82.6	47	60.5	7.0	NW	7.00	15.0	NW	82.8	83.5	83.5	29.926	0.00	0.00	0.000	0.742	87.0	35	56.0	86.2	1405	1	100.0	60
08/10/19	1:00 p	83.8	83.8	82.8	46	60.8	7.0	NNW	7.00	18.0	WNW	83.8	84.9	84.9	29.908	0.00	0.00	0.000	0.783	86.5	31	52.3	85.0	1405	1	100.0	60
08/10/19	2:00 p	84.8	84.8	83.8	42	59.2	6.0	NNW	6.00	15.0	WNW	84.8	85.3	85.3	29.894	0.00	0.00	0.000	0.825	89.1	35	57.9	88.5	1405	1	100.0	60
08/10/19	3:00 p	85.5	85.7	84.8	45	61.7	6.0	WNW	6.00	15.0	NW	85.5	86.5	86.5	29.888	0.00	0.00	0.000	0.854	88.9	31	54.4	87.1	1405	1	100.0	60
08/10/19	4:00 p	85.7	85.7	85.5	47	63.1	5.0	WNW	5.00	14.0	WNW	85.7	87.2	87.2	29.873	0.00	0.00	0.000	0.862	91.4	32	57.4	91.1	1405	1	100.0	60
08/10/19	5:00 p	86.0	86.0	85.7	47	63.4	5.0	W	5.00	11.0	WSW	86.0	87.5	87.5	29.861	0.00	0.00	0.000	0.875	90.3	30	54.7	89.4	1405	1	100.0	60
08/10/19	6:00 p	85.4	86.0	85.4	49	64.1	5.0	ENE	5.00	12.0	ENE	85.4	87.2	87.2	29.867	0.00	0.00	0.000	0.850	92.8	32	58.6	93.0	1405	1	100.0	60
08/10/19	7:00 p	82.5	85.3	82.5	53	63.6	6.0	ENE	6.00	14.0	ENE	82.5	83.9	83.9	29.887	0.00	0.00	0.000	0.729	89.8	30	54.2	88.6	1405	1	100.0	60
08/10/19	8:00 p	80.7	82.5	80.7	57	64.1	4.0	ESE	4.00	12.0	ENE	80.7	81.8	81.8	29.908	0.00	0.00	0.000	0.654	87.9	30	52.6	85.6	1405	1	100.0	60
08/10/19	9:00 p	78.6	80.7	78.5	61	64.0	0.0	ESE	0.00	6.0	ESE	78.6	79.7	79.7	29.921	0.00	0.00	0.000	0.567	88.7	31	54.2	86.9	1405	1	100.0	60
08/10/19	10:00 p	76.1	78.6	76.1	67	64.3	4.0	ESE	4.00	7.0	SE	76.1	77.5	77.5	29.932	0.00	0.00	0.000	0.462	86.2	30	51.1	84.5	1405	1	100.0	60
08/10/19	11:00 p	74.2	76.1	74.2	74	65.4	0.0	SSE	0.00	5.0	SSE	74.2	76.1	76.1	29.940	0.00	0.00	0.000	0.383	86.6	31	52.4	85.0	1404	1	100.0	60
08/11/19	12:00 a	72.5	74.2	72.5	76	64.5	0.0	E	0.00	6.0	E	72.5	73.8	73.8	29.941	0.00	0.00	0.000	0.313	84.4	31	50.5	82.9	1405	1	100.0	60
SUNDAY			Temp	Hi	Low	Out	Dew	Wind	Wind	Wind	Hi	Hi	Wind	Heat	THW			Rain	Heat	Cool	In 	In	In 	In 	Wind	Wind	ISS 	Arc.
Date		Time	Out	Temp	Temp	Hum	Pt.	Speed	Dir	Run	Speed	Dir	Chill	Index	Index	Bar  	Rain	Rate	D-D 	D-D 	Temp	Hum	Dew	Heat	Samp	Tx 	Recept	Int.
08/11/19	1:00 a	71.3	72.5	71.2	79	64.4	0.0	E	0.00	5.0	E	71.3	72.5	72.5	29.946	0.00	0.00	0.000	0.263	84.9	31	50.9	83.3	1404	1	100.0	60
08/11/19	2:00 a	70.3	71.2	70.3	82	64.5	0.0	E	0.00	5.0	E	70.3	71.6	71.6	29.938	0.00	0.00	0.000	0.221	84.6	32	51.5	83.2	1405	1	100.0	60
08/11/19	3:00 a	70.1	70.3	70.1	84	65.0	0.0	E	0.00	4.0	E	70.1	71.5	71.5	29.926	0.00	0.00	0.000	0.212	84.0	32	51.0	82.7	1405	1	100.0	60
08/11/19	4:00 a	69.5	70.2	69.5	87	65.5	0.0	E	0.00	6.0	ESE	69.5	71.3	71.3	29.935	0.00	0.00	0.000	0.188	83.9	33	51.7	82.8	1405	1	100.0	60
08/11/19	5:00 a	69.0	69.5	69.0	89	65.6	0.0	SE	0.00	5.0	SE	69.0	71.0	71.0	29.948	0.00	0.00	0.000	0.167	83.5	33	51.4	82.2	1405	1	100.0	60
08/11/19	6:00 a	69.4	69.4	69.0	90	66.3	0.0	SE	0.00	5.0	SE	69.4	71.4	71.4	29.966	0.00	0.00	0.000	0.183	83.2	34	51.9	81.9	1405	1	100.0	60
08/11/19	7:00 a	69.9	69.9	69.4	91	67.2	0.0	SE	0.00	5.0	SE	69.9	72.0	72.0	29.986	0.00	0.00	0.000	0.204	82.3	33	50.3	80.8	1405	1	100.0	60
08/11/19	8:00 a	71.6	71.6	69.9	89	68.2	4.0	SE	4.00	7.0	NW	71.6	73.7	73.7	29.997	0.00	0.00	0.000	0.275	81.8	34	50.7	80.3	1405	1	100.0	60
08/11/19	9:00 a	76.7	76.7	71.6	74	67.8	5.0	NW	5.00	12.0	WNW	76.7	79.0	79.0	30.011	0.00	0.00	0.000	0.487	81.7	33	49.8	80.1	1405	1	100.0	60
08/11/19	10:00 a	81.7	81.7	76.7	63	67.9	6.0	ENE	6.00	14.0	NE	81.7	84.3	84.3	30.015	0.00	0.00	0.000	0.696	84.0	32	51.0	82.7	1404	1	100.0	60
08/11/19	11:00 a	82.9	82.9	81.7	62	68.5	5.0	NW	5.00	12.0	ENE	82.9	86.0	86.0	30.020	0.00	0.00	0.000	0.746	84.5	33	52.2	83.4	1406	1	100.0	60
08/11/19	12:00 p	84.3	84.3	82.9	55	66.4	6.0	E	6.00	14.0	ENE	84.3	87.0	87.0	30.021	0.00	0.00	0.000	0.804	87.5	34	55.7	86.3	1404	1	100.0	60
08/11/19	1:00 p	84.6	84.6	84.3	54	66.1	6.0	ENE	6.00	14.0	WNW	84.6	87.2	87.2	30.019	0.00	0.00	0.000	0.817	87.1	33	54.5	85.9	1405	1	100.0	60
08/11/19	2:00 p	85.8	85.8	84.6	49	64.4	6.0	NNW	6.00	15.0	NW	85.8	87.7	87.7	30.006	0.00	0.00	0.000	0.867	89.6	32	55.8	88.6	1405	1	100.0	60
08/11/19	3:00 p	86.5	86.5	85.8	53	67.3	6.0	NE	6.00	14.0	WNW	86.5	90.1	90.1	29.998	0.00	0.00	0.000	0.896	89.8	33	56.9	89.2	1405	1	100.0	60
08/11/19	4:00 p	85.3	86.5	85.3	53	66.2	5.0	NE	5.00	12.0	ENE	85.3	88.0	88.0	29.985	0.00	0.00	0.000	0.846	90.6	33	57.6	90.3	1405	1	100.0	60
08/11/19	5:00 p	85.9	85.9	85.3	62	71.4	6.0	NE	6.00	15.0	S	85.9	92.0	92.0	29.987	0.00	0.00	0.000	0.871	90.6	33	57.6	90.3	1405	1	100.0	60
08/11/19	6:00 p	86.3	86.5	85.8	60	70.8	5.0	SSE	5.00	14.0	S	86.3	92.1	92.1	29.989	0.00	0.00	0.000	0.888	90.6	30	54.9	89.7	1405	1	100.0	60
08/11/19	7:00 p	86.0	86.3	86.0	61	71.0	6.0	SSE	6.00	14.0	SSE	86.0	91.9	91.9	29.981	0.00	0.00	0.000	0.875	90.3	32	56.4	89.7	1405	1	100.0	60
08/11/19	8:00 p	83.4	86.0	83.4	63	69.5	6.0	SSE	6.00	14.0	SSE	83.4	87.3	87.3	29.985	0.00	0.00	0.000	0.767	87.5	29	51.3	85.3	1405	1	100.0	60
08/11/19	9:00 p	80.1	83.4	80.1	68	68.6	5.0	SSE	5.00	13.0	SE	80.1	82.6	82.6	29.999	0.00	0.00	0.000	0.629	88.1	31	53.7	86.1	1405	1	100.0	60
08/11/19	10:00 p	77.5	80.1	77.5	73	68.2	4.0	SSE	4.00	7.0	SSE	77.5	79.8	79.8	30.005	0.00	0.00	0.000	0.521	85.5	30	50.5	83.8	1405	1	100.0	60
08/11/19	11:00 p	75.3	77.5	75.3	78	68.0	0.0	SSE	0.00	4.0	SSE	75.3	77.7	77.7	30.007	0.00	0.00	0.000	0.429	86.2	32	52.9	84.9	1405	1	100.0	60
08/12/19	12:00 a	73.1	75.3	73.1	82	67.3	0.0	SSE	0.00	4.0	SSE	73.1	75.0	75.0	30.015	0.00	0.00	0.000	0.337	84.2	31	50.3	82.7	1405	1	100.0	60
MONDAY			Temp	Hi	Low	Out	Dew	Wind	Wind	Wind	Hi	Hi	Wind	Heat	THW			Rain	Heat	Cool	In 	In	In 	In 	Wind	Wind	ISS 	Arc.
Date		Time	Out	Temp	Temp	Hum	Pt.	Speed	Dir	Run	Speed	Dir	Chill	Index	Index	Bar  	Rain	Rate	D-D 	D-D 	Temp	Hum	Dew	Heat	Samp	Tx 	Recept	Int.
08/12/19	1:00 a	71.4	73.1	71.4	85	66.7	0.0	SE	0.00	5.0	SE	71.4	73.2	73.2	30.016	0.00	0.00	0.000	0.267	84.6	32	51.5	83.2	1404	1	100.0	60
08/12/19	2:00 a	70.0	71.4	70.0	89	66.6	0.0	SE	0.00	4.0	SE	70.0	71.9	71.9	30.005	0.00	0.00	0.000	0.208	84.3	33	52.1	83.2	1404	1	100.0	60
08/12/19	3:00 a	68.9	70.0	68.9	91	66.2	0.0	---	0.00	0.0	---	68.9	70.9	70.9	30.006	0.00	0.00	0.000	0.163	84.1	33	51.9	83.0	1405	1	100.0	60
08/12/19	4:00 a	68.1	68.9	68.1	93	66.0	0.0	SE	0.00	4.0	SE	68.1	70.0	70.0	29.996	0.00	0.00	0.000	0.129	83.7	34	52.3	82.7	1405	1	100.0	60
08/12/19	5:00 a	67.4	68.1	67.4	94	65.6	0.0	SE	0.00	4.0	SE	67.4	69.1	69.1	30.000	0.00	0.00	0.000	0.100	83.2	34	51.9	81.9	1405	1	100.0	60
08/12/19	6:00 a	66.8	67.4	66.8	95	65.3	0.0	SE	0.00	5.0	SE	66.8	68.4	68.4	30.003	0.00	0.00	0.000	0.075	81.7	33	49.8	80.1	1405	1	100.0	60
08/12/19	7:00 a	66.5	66.8	66.5	96	65.3	0.0	SE	0.00	4.0	SE	66.5	68.0	68.0	30.005	0.00	0.00	0.000	0.063	82.0	34	50.9	80.6	1405	1	100.0	60
08/12/19	8:00 a	69.1	69.1	66.6	98	68.5	0.0	SE	0.00	6.0	SE	69.1	71.8	71.8	30.019	0.00	0.00	0.000	0.171	81.8	35	51.5	80.5	1405	1	100.0	60
08/12/19	9:00 a	74.5	74.5	69.1	95	73.0	4.0	SE	4.00	6.0	SE	74.5	77.8	77.8	30.007	0.00	0.00	0.000	0.396	82.6	35	52.2	81.4	1405	1	100.0	60
08/12/19	10:00 a	82.8	82.8	74.5	68	71.2	4.0	SSE	4.00	10.0	SSE	82.8	87.4	87.4	30.013	0.00	0.00	0.000	0.742	82.4	34	51.2	81.0	1405	1	100.0	60
08/12/19	11:00 a	84.8	84.8	82.9	65	71.7	5.0	S	5.00	11.0	E	84.8	90.7	90.7	30.012	0.00	0.00	0.000	0.825	84.6	34	53.1	83.6	1405	1	100.0	60
08/12/19	12:00 p	86.4	86.4	84.8	57	69.4	6.0	SSE	6.00	14.0	SSE	86.4	91.3	91.3	30.011	0.00	0.00	0.000	0.892	85.6	35	54.8	84.9	1405	1	100.0	60
08/12/19	1:00 p	87.4	87.5	86.4	60	71.8	6.0	S	6.00	14.0	SSE	87.4	94.1	94.1	30.004	0.00	0.00	0.000	0.933	87.4	33	54.8	86.0	1404	1	100.0	60
08/12/19	2:00 p	89.0	89.0	87.5	56	71.3	6.0	S	6.00	16.0	S	89.0	95.8	95.8	29.986	0.00	0.00	0.000	1.000	89.1	35	57.9	88.5	1405	1	100.0	60
08/12/19	3:00 p	89.1	89.3	88.7	53	69.7	6.0	SSE	6.00	14.0	SE	89.1	94.9	94.9	29.972	0.00	0.00	0.000	1.004	89.3	32	55.6	88.1	1405	1	100.0	60
08/12/19	4:00 p	90.0	90.0	89.1	54	71.1	6.0	S	6.00	14.0	SSE	90.0	96.9	96.9	29.946	0.00	0.00	0.000	1.042	90.8	34	58.6	90.7	1405	1	100.0	60
08/12/19	5:00 p	90.0	90.0	90.0	53	70.6	6.0	SSE	6.00	17.0	S	90.0	96.5	96.5	29.944	0.00	0.00	0.000	1.042	90.8	31	56.0	90.2	1405	1	100.0	60
08/12/19	6:00 p	89.3	89.3	89.3	53	69.9	10.0	SSE	10.00	21.0	SSE	89.2	95.2	95.1	29.939	0.00	0.00	0.000	1.013	91.7	32	57.7	91.5	1406	1	100.0	60
08/12/19	7:00 p	86.9	89.2	86.9	57	69.8	7.0	SSE	7.00	16.0	ESE	86.9	92.3	92.3	29.929	0.00	0.00	0.000	0.913	89.7	30	54.1	88.4	1404	1	100.0	60
08/12/19	8:00 p	83.7	86.9	83.7	61	68.8	6.0	SSE	6.00	15.0	SSE	83.7	87.4	87.4	29.934	0.00	0.00	0.000	0.779	90.1	32	56.3	89.5	1405	1	100.0	60
08/12/19	9:00 p	80.3	83.7	80.3	64	67.0	5.0	SSE	5.00	12.0	SE	80.3	82.3	82.3	29.935	0.00	0.00	0.000	0.638	87.1	31	52.8	85.5	1405	1	100.0	60
08/12/19	10:00 p	77.9	80.3	77.9	69	66.9	6.0	SSE	6.00	14.0	SSE	77.9	79.8	79.8	29.937	0.00	0.00	0.000	0.538	87.9	32	54.4	86.1	1405	1	100.0	60
08/12/19	11:00 p	76.2	77.9	76.2	77	68.5	5.0	SSE	5.00	12.0	S	76.2	78.8	78.8	29.933	0.00	0.00	0.000	0.467	85.5	31	51.4	84.0	1405	1	100.0	60
08/13/19	12:00 a	75.1	76.2	75.1	82	69.2	6.0	S	6.00	14.0	SE	75.1	77.8	77.8	29.935	0.00	0.00	0.000	0.421	85.8	33	53.4	84.7	1405	1	100.0	60
TUESDAY			Temp	Hi	Low	Out	Dew	Wind	Wind	Wind	Hi	Hi	Wind	Heat	THW			Rain	Heat	Cool	In 	In	In 	In 	Wind	Wind	ISS 	Arc.
Date		Time	Out	Temp	Temp	Hum	Pt.	Speed	Dir	Run	Speed	Dir	Chill	Index	Index	Bar  	Rain	Rate	D-D 	D-D 	Temp	Hum	Dew	Heat	Samp	Tx 	Recept	Int.
08/13/19	1:00 a	74.5	75.2	74.5	86	70.0	5.0	S	5.00	12.0	SSE	74.5	77.2	77.2	29.934	0.00	0.00	0.000	0.396	83.6	32	50.6	82.1	1404	1	100.0	60
08/13/19	2:00 a	73.9	74.5	73.9	90	70.8	4.0	S	4.00	7.0	SSE	73.9	76.3	76.3	29.923	0.00	0.00	0.000	0.371	84.1	33	51.9	83.0	1404	1	100.0	60
08/13/19	3:00 a	73.5	73.9	73.5	91	70.7	4.0	S	4.00	11.0	S	73.5	76.0	76.0	29.909	0.00	0.00	0.000	0.354	84.1	34	52.7	83.2	1406	1	100.0	60
08/13/19	4:00 a	73.0	73.5	73.0	92	70.5	4.0	S	4.00	10.0	SSE	73.0	75.6	75.6	29.902	0.00	0.00	0.000	0.333	82.0	33	50.1	80.5	1405	1	100.0	60
08/13/19	5:00 a	72.6	73.0	72.6	94	70.8	4.0	S	4.00	7.0	SW	72.6	75.3	75.3	29.888	0.00	0.00	0.000	0.317	82.8	34	51.6	81.4	1404	1	100.0	60
08/13/19	6:00 a	72.4	72.6	72.4	95	70.9	4.0	S	4.00	11.0	S	72.4	75.2	75.2	29.894	0.00	0.00	0.000	0.308	83.0	35	52.5	81.8	1405	1	100.0	60
08/13/19	7:00 a	72.9	72.9	72.3	97	72.0	4.0	S	4.00	12.0	S	72.9	76.0	76.0	29.901	0.00	0.00	0.000	0.329	82.2	33	50.2	80.7	1405	1	100.0	60
08/13/19	8:00 a	75.4	75.4	72.9	96	74.2	5.0	S	5.00	15.0	S	75.4	79.3	79.3	29.899	0.00	0.00	0.000	0.433	82.8	34	51.6	81.4	1405	1	100.0	60
08/13/19	9:00 a	78.8	78.8	75.4	90	75.6	6.0	SSW	6.00	17.0	SW	78.8	84.3	84.3	29.894	0.00	0.00	0.000	0.575	83.8	35	53.2	83.0	1405	1	100.0	60
08/13/19	10:00 a	81.9	81.9	78.8	88	78.0	6.0	SSW	6.00	18.0	SW	81.9	91.1	91.1	29.890	0.00	0.00	0.000	0.704	83.5	35	53.0	82.6	1405	1	100.0	60
08/13/19	11:00 a	85.6	85.6	81.9	78	77.9	7.0	SSW	7.00	19.0	SW	85.6	97.1	97.1	29.878	0.00	0.00	0.000	0.858	84.7	35	54.0	83.9	1405	1	100.0	60
08/13/19	12:00 p	88.9	88.9	85.6	70	77.8	7.0	SSW	7.00	21.0	SW	88.9	102.0	102.0	29.869	0.00	0.00	0.000	0.996	86.2	37	56.9	85.9	1405	1	100.0	60
08/13/19	1:00 p	90.8	90.8	88.9	67	78.3	10.0	SW	10.00	21.0	SSE	90.8	106.4	106.4	29.848	0.00	0.00	0.000	1.075	86.4	35	55.5	85.7	1405	1	100.0	60
08/13/19	2:00 p	90.2	90.9	90.1	69	78.6	7.0	SSW	7.00	22.0	S	90.2	105.8	105.8	29.832	0.00	0.00	0.000	1.050	87.8	37	58.3	87.2	1405	1	100.0	60
08/13/19	3:00 p	91.0	91.1	90.2	69	79.4	7.0	S	7.00	20.0	S	91.0	108.3	108.3	29.793	0.00	0.00	0.000	1.083	86.8	34	55.1	85.8	1405	1	100.0	60
08/13/19	4:00 p	91.0	91.0	91.0	68	79.0	10.0	S	10.00	24.0	SSE	91.0	107.6	107.6	29.780	0.00	0.00	0.000	1.083	89.5	37	59.8	89.7	1404	1	100.0	60
08/13/19	5:00 p	91.0	91.0	91.0	66	78.1	10.0	S	10.00	25.0	SSE	91.0	106.3	106.3	29.766	0.00	0.00	0.000	1.083	88.1	34	56.2	86.7	1406	1	100.0	60
08/13/19	6:00 p	90.5	90.5	90.5	66	77.6	7.0	SSW	7.00	22.0	SW	90.5	104.8	104.8	29.770	0.00	0.00	0.000	1.063	89.8	36	59.3	89.9	1404	1	100.0	60
08/13/19	7:00 p	88.4	90.5	88.4	70	77.4	6.0	SSE	6.00	14.0	SSE	88.4	100.3	100.3	29.779	0.00	0.00	0.000	0.975	87.1	34	55.3	86.1	1405	1	100.0	60
08/13/19	8:00 p	86.4	88.4	86.4	75	77.5	5.0	S	5.00	14.0	S	86.4	98.0	98.0	29.800	0.00	0.00	0.000	0.892	89.1	35	57.9	88.5	1405	1	100.0	60
08/13/19	9:00 p	83.5	86.4	83.5	82	77.4	6.0	SW	6.00	19.0	SW	83.5	93.7	93.7	29.796	0.00	0.00	0.000	0.771	86.7	34	55.0	85.7	1405	1	100.0	60
08/13/19	10:00 p	79.3	83.5	79.3	83	73.7	7.0	SSW	7.00	19.0	SW	79.3	83.9	83.9	29.783	0.00	0.00	0.000	0.596	87.0	33	54.4	85.8	1405	1	100.0	60
08/13/19	11:00 p	77.5	79.3	77.5	84	72.3	6.0	SW	6.00	16.0	SW	77.5	81.2	81.2	29.794	0.00	0.00	0.000	0.521	85.9	34	54.3	85.0	1405	1	100.0	60
08/14/19	12:00 a	76.6	77.5	76.6	87	72.4	5.0	SW	5.00	16.0	SSE	76.6	80.2	80.2	29.788	0.00	0.00	0.000	0.483	86.4	35	55.5	85.7	1405	1	100.0	60
WEDNESDAY		Temp	Hi	Low	Out	Dew	Wind	Wind	Wind	Hi	Hi	Wind	Heat	THW			Rain	Heat	Cool	In 	In	In 	In 	Wind	Wind	ISS 	Arc.
Date		Time	Out	Temp	Temp	Hum	Pt.	Speed	Dir	Run	Speed	Dir	Chill	Index	Index	Bar  	Rain	Rate	D-D 	D-D 	Temp	Hum	Dew	Heat	Samp	Tx 	Recept	Int.
08/14/19	1:00 a	75.6	76.6	75.6	89	72.1	5.0	W	5.00	13.0	SW	75.6	79.0	79.0	29.804	0.00	0.00	0.000	0.442	84.6	34	53.1	83.6	1404	1	100.0	60
08/14/19	2:00 a	75.0	75.6	74.9	91	72.2	4.0	SW	4.00	12.0	SW	75.0	78.5	78.5	29.785	0.00	0.00	0.000	0.417	85.1	35	54.4	84.3	1405	1	100.0	60
08/14/19	3:00 a	74.2	74.9	74.2	93	72.0	4.0	S	4.00	11.0	SW	74.2	77.1	77.1	29.776	0.00	0.00	0.000	0.383	84.0	33	51.8	82.9	1405	1	100.0	60
08/14/19	4:00 a	73.8	74.2	73.8	95	72.3	5.0	SW	5.00	12.0	SW	73.8	76.8	76.8	29.778	0.00	0.00	0.000	0.367	83.6	35	53.1	82.7	1404	1	100.0	60
08/14/19	5:00 a	73.4	73.8	73.4	96	72.2	5.0	SSW	5.00	13.0	SW	73.4	76.4	76.4	29.783	0.00	0.00	0.000	0.350	83.8	35	53.2	83.0	1406	1	100.0	60
08/14/19	6:00 a	73.4	73.4	73.3	97	72.5	5.0	SW	5.00	11.0	SSW	73.4	76.6	76.6	29.790	0.00	0.00	0.000	0.350	82.8	34	51.6	81.4	1404	1	100.0	60
08/14/19	7:00 a	74.2	74.2	73.4	98	73.6	5.0	SW	5.00	14.0	SW	74.2	77.6	77.6	29.813	0.00	0.00	0.000	0.383	82.8	35	52.3	81.6	1406	1	100.0	60
08/14/19	8:00 a	75.9	75.9	74.2	96	74.7	5.0	W	5.00	16.0	WSW	75.9	79.9	79.9	29.803	0.00	0.00	0.000	0.454	83.7	35	53.1	82.8	1404	1	100.0	60
08/14/19	9:00 a	78.3	78.3	75.9	91	75.5	5.0	W	5.00	15.0	W	78.3	83.5	83.5	29.801	0.00	0.00	0.000	0.554	82.4	35	52.0	81.1	1405	1	100.0	60
08/14/19	10:00 a	81.9	81.9	78.3	85	76.9	5.0	WSW	5.00	16.0	WNW	81.9	90.1	90.1	29.798	0.00	0.00	0.000	0.704	84.3	35	53.7	83.6	1405	1	100.0	60
08/14/19	11:00 a	84.9	84.9	81.9	79	77.7	5.0	W	5.00	12.0	WNW	84.9	95.9	95.9	29.797	0.00	0.00	0.000	0.829	83.7	33	51.5	82.5	1405	1	100.0	60
08/14/19	12:00 p	87.4	87.4	84.9	73	77.7	5.0	W	5.00	14.0	W	87.4	99.4	99.4	29.815	0.00	0.00	0.000	0.933	86.1	36	56.0	85.6	1405	1	100.0	60
08/14/19	1:00 p	89.5	89.5	87.4	69	78.0	5.0	W	5.00	13.0	W	89.5	103.5	103.5	29.813	0.00	0.00	0.000	1.021	86.8	31	52.5	85.2	1405	1	100.0	60
08/14/19	2:00 p	91.9	91.9	89.5	66	78.9	6.0	SW	6.00	14.0	WNW	91.9	109.0	109.0	29.808	0.00	0.00	0.000	1.121	89.1	38	60.2	89.5	1405	1	100.0	60
08/14/19	3:00 p	92.4	92.4	91.9	64	78.4	5.0	W	5.00	14.0	WNW	92.4	109.1	109.1	29.805	0.00	0.00	0.000	1.142	89.1	30	53.6	87.2	1405	1	100.0	60
08/14/19	4:00 p	92.4	92.4	92.4	67	79.8	5.0	SW	5.00	13.0	SSE	92.4	111.4	111.4	29.799	0.00	0.00	0.000	1.142	91.0	38	61.9	92.2	1405	1	100.0	60
08/14/19	5:00 p	92.4	92.4	92.4	66	79.4	5.0	SW	5.00	15.0	SW	92.4	110.6	110.6	29.789	0.00	0.00	0.000	1.142	89.7	32	55.9	88.8	1405	1	100.0	60
08/14/19	6:00 p	92.0	92.0	92.0	68	79.9	5.0	SW	5.00	13.0	SW	92.0	110.8	110.8	29.777	0.00	0.00	0.000	1.125	91.7	36	61.0	92.5	1405	1	100.0	60
08/14/19	7:00 p	89.9	89.8	89.9	71	79.2	5.0	SW	5.00	12.0	WSW	89.9	106.2	106.2	29.781	0.00	0.00	0.000	1.038	89.3	35	58.1	88.8	1404	1	100.0	60
08/14/19	8:00 p	84.4	89.9	84.4	72	74.4	6.0	ENE	6.00	15.0	NW	84.4	92.4	92.4	29.831	0.00	0.00	0.000	0.808	90.3	34	58.1	90.1	1405	1	100.0	60
08/14/19	9:00 p	80.8	84.4	80.8	85	75.9	6.0	ENE	6.00	17.0	NW	80.8	87.4	87.4	29.852	0.29	5.54	0.000	0.658	87.9	34	56.0	86.5	1406	1	100.0	60
08/14/19	10:00 p	76.9	80.7	76.6	97	76.0	5.0	SW	5.00	15.0	NE	76.9	81.6	81.6	29.849	0.08	2.30	0.000	0.496	87.9	34	56.0	86.5	1404	1	100.0	60
08/14/19	11:00 p	75.5	76.9	75.5	98	74.9	4.0	SSE	4.00	13.0	NNW	75.5	79.5	79.5	29.860	0.00	0.00	0.000	0.438	86.3	34	54.6	85.4	1405	1	100.0	60
08/15/19	12:00 a	74.8	75.5	74.8	98	74.2	0.0	SSE	0.00	7.0	SSE	74.8	78.5	78.5	29.860	0.00	0.00	0.000	0.408	86.4	35	55.5	85.7	1405	1	100.0	60
THURSDAY		Temp	Hi	Low	Out	Dew	Wind	Wind	Wind	Hi	Hi	Wind	Heat	THW			Rain	Heat	Cool	In 	In	In 	In 	Wind	Wind	ISS 	Arc.
Date		Time	Out	Temp	Temp	Hum	Pt.	Speed	Dir	Run	Speed	Dir	Chill	Index	Index	Bar  	Rain	Rate	D-D 	D-D 	Temp	Hum	Dew	Heat	Samp	Tx 	Recept	Int.
08/15/19	1:00 a	74.8	74.8	74.6	99	74.5	4.0	SSE	4.00	13.0	WNW	74.8	78.5	78.5	29.895	0.00	0.00	0.000	0.408	84.4	34	53.0	83.5	1404	1	100.0	60
08/15/19	2:00 a	74.6	74.8	74.5	99	74.3	4.0	W	4.00	7.0	W	74.6	78.3	78.3	29.867	0.00	0.00	0.000	0.400	85.0	35	54.3	84.2	1405	1	100.0	60
08/15/19	3:00 a	74.7	74.7	74.6	100	74.7	4.0	WSW	4.00	6.0	WSW	74.7	78.4	78.4	29.866	0.00	0.00	0.000	0.404	84.8	34	53.3	83.8	1405	1	100.0	60
08/15/19	4:00 a	74.7	74.7	74.6	100	74.7	4.0	NE	4.00	11.0	NE	74.7	78.4	78.4	29.851	0.00	0.00	0.000	0.404	83.2	35	52.7	82.1	1405	1	100.0	60
08/15/19	5:00 a	74.5	74.7	74.4	100	74.5	0.0	SE	0.00	5.0	SE	74.5	78.2	78.2	29.865	0.00	0.00	0.000	0.396	83.6	35	53.1	82.7	1405	1	100.0	60
08/15/19	6:00 a	74.4	74.5	74.4	100	74.4	0.0	SE	0.00	4.0	SE	74.4	78.1	78.1	29.874	0.00	0.00	0.000	0.392	83.6	36	53.8	82.9	1405	1	100.0	60
08/15/19	7:00 a	74.6	74.6	74.4	100	74.6	0.0	SE	0.00	5.0	SE	74.6	78.3	78.3	29.893	0.00	0.00	0.000	0.400	82.3	35	51.9	81.0	1404	1	100.0	60
08/15/19	8:00 a	76.0	76.0	74.6	100	76.0	4.0	SE	4.00	7.0	ENE	76.0	80.3	80.3	29.914	0.00	0.00	0.000	0.458	83.5	35	53.0	82.6	1405	1	100.0	60
08/15/19	9:00 a	77.6	77.6	76.0	100	77.6	4.0	NE	4.00	7.0	NE	77.6	83.5	83.5	29.929	0.15	1.92	0.000	0.525	83.7	35	53.1	82.8	1405	1	100.0	60
08/15/19	10:00 a	78.5	78.7	77.6	100	78.5	6.0	NE	6.00	14.0	ENE	78.5	85.6	85.6	29.929	0.00	0.00	0.000	0.563	83.8	37	54.7	83.4	1405	1	100.0	60
08/15/19	11:00 a	78.3	78.5	78.3	99	78.0	6.0	NE	6.00	14.0	ESE	78.3	84.9	84.9	29.947	0.00	0.00	0.000	0.554	84.6	38	56.2	84.4	1405	1	100.0	60
08/15/19	12:00 p	79.8	79.8	78.3	96	78.6	10.0	NE	10.00	16.0	NE	78.2	87.9	86.3	29.932	0.00	0.00	0.000	0.617	84.3	38	55.9	84.2	1405	1	100.0	60
08/15/19	1:00 p	82.9	82.9	79.8	90	79.7	7.0	ENE	7.00	17.0	ENE	82.9	94.5	94.5	29.921	0.00	0.00	0.000	0.746	86.0	37	56.7	85.7	1405	1	100.0	60
08/15/19	2:00 p	85.0	85.3	82.9	84	79.6	7.0	NE	7.00	17.0	ENE	85.0	98.0	98.0	29.908	0.00	0.00	0.000	0.833	87.0	39	59.0	87.2	1405	1	100.0	60
08/15/19	3:00 p	84.5	85.0	84.4	85	79.5	7.0	ENE	7.00	16.0	ENE	84.5	97.3	97.3	29.892	0.00	0.00	0.000	0.813	87.0	36	56.8	86.4	1405	1	100.0	60
08/15/19	4:00 p	83.8	84.5	83.8	85	78.8	10.0	ENE	10.00	21.0	ENE	82.7	95.5	94.4	29.879	0.00	0.00	0.000	0.783	87.5	39	59.5	87.5	1405	1	100.0	60
08/15/19	5:00 p	81.9	83.8	81.9	91	79.0	5.0	NE	5.00	15.0	NE	81.9	92.2	92.2	29.893	0.04	0.30	0.000	0.704	86.4	36	56.3	85.9	1405	1	100.0	60
08/15/19	6:00 p	79.2	81.9	79.2	96	78.0	5.0	NE	5.00	17.0	NE	79.2	86.5	86.5	29.921	0.01	0.07	0.000	0.592	87.5	37	58.0	87.0	1405	1	100.0	60
08/15/19	7:00 p	78.7	79.2	78.7	98	78.1	6.0	NE	6.00	14.0	NE	78.7	85.7	85.7	29.925	0.01	0.00	0.000	0.571	87.0	32	53.6	85.6	1405	1	100.0	60
08/15/19	8:00 p	78.3	78.7	78.3	98	77.7	5.0	SSE	5.00	11.0	NE	78.3	84.7	84.7	29.891	0.00	0.00	0.000	0.554	87.0	36	56.8	86.4	1405	1	100.0	60
08/15/19	9:00 p	77.6	78.3	77.6	98	77.0	6.0	SSE	6.00	16.0	S	77.6	83.2	83.2	29.907	0.00	0.00	0.000	0.525	86.8	34	55.1	85.8	1405	1	100.0	60
08/15/19	10:00 p	77.0	77.6	77.0	98	76.4	4.0	ENE	4.00	7.0	SSE	77.0	81.9	81.9	29.939	0.00	0.00	0.000	0.500	85.0	37	55.8	84.6	1404	1	100.0	60
08/15/19	11:00 p	76.9	77.0	76.9	99	76.6	4.0	ENE	4.00	11.0	SSE	76.9	81.9	81.9	29.928	0.00	0.00	0.000	0.496	84.9	38	56.5	84.7	1405	1	100.0	60
08/16/19	12:00 a	76.5	76.9	76.4	99	76.2	4.0	SE	4.00	7.0	SSE	76.5	81.2	81.2	29.936	0.00	0.00	0.000	0.479	83.2	36	53.5	82.3	1405	1	100.0	60
FRIDAY			Temp	Hi	Low	Out	Dew	Wind	Wind	Wind	Hi	Hi	Wind	Heat	THW			Rain	Heat	Cool	In 	In	In 	In 	Wind	Wind	ISS 	Arc.
Date		Time	Out	Temp	Temp	Hum	Pt.	Speed	Dir	Run	Speed	Dir	Chill	Index	Index	Bar  	Rain	Rate	D-D 	D-D 	Temp	Hum	Dew	Heat	Samp	Tx 	Recept	Int.
08/16/19	1:00 a	76.1	76.5	76.1	99	75.8	0.0	E	0.00	6.0	E	76.1	80.4	80.4	29.917	0.00	0.00	0.000	0.462	83.5	37	54.5	82.9	1403	1	100.0	60
08/16/19	2:00 a	75.4	76.1	75.4	99	75.1	4.0	ESE	4.00	6.0	E	75.4	79.4	79.4	29.931	0.00	0.00	0.000	0.433	83.5	37	54.5	82.9	1405	1	100.0	60
08/16/19	3:00 a	75.2	75.4	75.2	99	74.9	4.0	SSE	4.00	11.0	S	75.2	79.1	79.1	29.923	0.00	0.00	0.000	0.425	82.8	36	53.1	81.7	1405	1	100.0	60
08/16/19	4:00 a	74.7	75.2	74.6	100	74.7	4.0	NNW	4.00	7.0	NNE	74.7	78.4	78.4	29.923	0.00	0.00	0.000	0.404	82.1	37	53.2	81.1	1405	1	100.0	60
08/16/19	5:00 a	73.9	74.7	73.9	99	73.6	4.0	NNW	4.00	6.0	NNW	73.9	77.4	77.4	29.924	0.00	0.00	0.000	0.371	82.3	37	53.4	81.3	1405	1	100.0	60
08/16/19	6:00 a	73.3	73.9	73.3	100	73.3	0.0	NNW	0.00	5.0	NNW	73.3	76.9	76.9	29.939	0.00	0.00	0.000	0.346	82.3	38	54.2	81.4	1405	1	100.0	60
08/16/19	7:00 a	73.5	73.5	73.3	100	73.5	4.0	NNW	4.00	5.0	NNW	73.5	77.1	77.1	29.937	0.00	0.00	0.000	0.354	82.2	36	52.6	81.1	1405	1	100.0	60
08/16/19	8:00 a	74.7	74.7	73.5	100	74.7	4.0	WSW	4.00	7.0	SW	74.7	78.4	78.4	29.950	0.00	0.00	0.000	0.404	81.7	37	52.9	80.6	1405	1	100.0	60
08/16/19	9:00 a	77.2	77.2	74.7	100	77.2	5.0	SSW	5.00	11.0	S	77.2	82.6	82.6	29.962	0.00	0.00	0.000	0.508	82.8	37	53.9	81.9	1405	1	100.0	60
08/16/19	10:00 a	80.0	80.0	77.3	96	78.8	5.0	S	5.00	13.0	S	80.0	88.4	88.4	29.959	0.00	0.00	0.000	0.625	82.4	36	52.8	81.3	1404	1	100.0	60
08/16/19	11:00 a	82.8	82.8	80.1	85	77.8	5.0	SSE	5.00	11.0	ESE	82.8	92.6	92.6	29.963	0.00	0.00	0.000	0.742	85.2	38	56.7	85.0	1405	1	100.0	60
08/16/19	12:00 p	85.7	85.7	82.8	81	79.2	5.0	SSE	5.00	12.0	S	85.7	98.5	98.5	29.962	0.00	0.00	0.000	0.862	85.7	39	57.9	85.7	1405	1	100.0	60
08/16/19	1:00 p	88.0	88.0	85.8	80	81.0	5.0	SSE	5.00	15.0	SE	88.0	104.4	104.4	29.959	0.00	0.00	0.000	0.958	87.5	37	58.0	87.0	1406	1	100.0	60
08/16/19	2:00 p	88.7	88.8	88.0	79	81.3	5.0	SSE	5.00	13.0	SSE	88.7	107.1	107.1	29.957	0.00	0.00	0.000	0.987	87.5	39	59.5	87.5	1404	1	100.0	60
08/16/19	3:00 p	89.0	89.0	88.7	75	80.0	6.0	S	6.00	16.0	SSE	89.0	105.5	105.5	29.949	0.00	0.00	0.000	1.000	88.5	36	58.1	87.9	1405	1	100.0	60
08/16/19	4:00 p	89.0	89.0	89.0	75	80.0	7.0	S	7.00	16.0	SSE	89.0	105.5	105.5	29.941	0.00	0.00	0.000	1.000	88.7	38	59.8	88.8	1405	1	100.0	60
08/16/19	5:00 p	88.4	89.0	88.4	76	79.9	7.0	S	7.00	21.0	SSE	88.4	103.7	103.7	29.941	0.00	0.00	0.000	0.975	89.3	36	58.8	89.1	1405	1	100.0	60
08/16/19	6:00 p	87.0	88.4	87.0	77	78.9	6.0	S	6.00	15.0	SSE	87.0	100.6	100.6	29.925	0.00	0.00	0.000	0.917	88.2	37	58.6	87.7	1405	1	100.0	60
08/16/19	7:00 p	84.8	87.0	84.8	80	77.9	7.0	S	7.00	18.0	SSE	84.8	96.0	96.0	29.944	0.00	0.00	0.000	0.825	88.5	35	57.4	87.6	1405	1	100.0	60
08/16/19	8:00 p	82.8	84.8	82.8	81	76.4	5.0	S	5.00	16.0	S	82.8	91.4	91.4	29.962	0.00	0.00	0.000	0.742	87.3	36	57.1	86.6	1405	1	100.0	60
08/16/19	9:00 p	80.6	82.8	80.6	84	75.3	6.0	S	6.00	13.0	S	80.6	86.7	86.7	29.958	0.00	0.00	0.000	0.650	87.3	34	55.5	86.2	1405	1	100.0	60
08/16/19	10:00 p	78.7	80.6	78.7	86	74.2	5.0	SSE	5.00	12.0	S	78.7	83.4	83.4	29.966	0.00	0.00	0.000	0.571	86.3	35	55.4	85.6	1405	1	100.0	60
08/16/19	11:00 p	77.1	78.7	77.1	90	73.9	4.0	SSE	4.00	12.0	SSE	77.1	81.2	81.2	29.956	0.00	0.00	0.000	0.504	86.3	35	55.4	85.6	1405	1	100.0	60
08/17/19	12:00 a	76.0	77.1	76.0	92	73.5	4.0	S	4.00	10.0	SSE	76.0	79.7	79.7	29.964	0.00	0.00	0.000	0.458	84.8	35	54.1	84.0	1405	1	100.0	60
SATURDAY		Temp	Hi	Low	Out	Dew	Wind	Wind	Wind	Hi	Hi	Wind	Heat	THW			Rain	Heat	Cool	In 	In	In 	In 	Wind	Wind	ISS 	Arc.
Date		Time	Out	Temp	Temp	Hum	Pt.	Speed	Dir	Run	Speed	Dir	Chill	Index	Index	Bar  	Rain	Rate	D-D 	D-D 	Temp	Hum	Dew	Heat	Samp	Tx 	Recept	Int.
08/17/19	1:00 a	75.1	76.0	75.1	94	73.3	4.0	SSE	4.00	10.0	SSE	75.1	78.8	78.8	29.974	0.00	0.00	0.000	0.421	85.2	36	55.2	84.6	1404	1	100.0	60
08/17/19	2:00 a	74.6	75.1	74.6	95	73.1	0.0	SSE	0.00	7.0	SSE	74.6	78.0	78.0	29.965	0.00	0.00	0.000	0.400	83.8	34	52.4	82.8	1404	1	100.0	60
08/17/19	3:00 a	74.5	74.6	74.5	97	73.6	0.0	SSE	0.00	5.0	SSE	74.5	78.0	78.0	29.956	0.00	0.00	0.000	0.396	83.6	35	53.1	82.7	1405	1	100.0	60
08/17/19	4:00 a	74.2	74.5	74.2	97	73.3	0.0	SSE	0.00	5.0	SSE	74.2	77.5	77.5	29.951	0.00	0.00	0.000	0.383	83.7	36	53.9	83.0	1405	1	100.0	60
08/17/19	5:00 a	74.4	74.4	74.0	98	73.8	4.0	SSE	4.00	6.0	SSW	74.4	77.9	77.9	29.946	0.00	0.00	0.000	0.392	83.7	36	53.9	83.0	1405	1	100.0	60
08/17/19	6:00 a	74.8	74.8	74.4	99	74.5	4.0	N	4.00	6.0	NNW	74.8	78.5	78.5	29.943	0.00	0.00	0.000	0.408	82.1	36	52.5	80.9	1405	1	100.0	60
08/17/19	7:00 a	75.1	75.1	74.8	99	74.8	4.0	NNW	4.00	7.0	NNW	75.1	78.9	78.9	29.959	0.00	0.00	0.000	0.421	83.1	36	53.4	82.1	1405	1	100.0	60
08/17/19	8:00 a	76.2	76.2	75.1	97	75.3	5.0	WNW	5.00	11.0	WNW	76.2	80.5	80.5	29.973	0.00	0.00	0.000	0.467	83.8	36	54.0	83.2	1405	1	100.0	60
08/17/19	9:00 a	78.8	78.8	76.2	91	75.9	5.0	WNW	5.00	13.0	W	78.8	84.5	84.5	29.990	0.00	0.00	0.000	0.575	83.9	36	54.1	83.3	1405	1	100.0	60
08/17/19	10:00 a	80.8	80.8	78.8	85	75.9	5.0	NE	5.00	12.0	ENE	80.8	87.4	87.4	29.987	0.00	0.00	0.000	0.658	85.2	36	55.2	84.6	1405	1	100.0	60
08/17/19	11:00 a	82.7	82.7	80.8	82	76.6	5.0	ENE	5.00	11.0	W	82.7	91.4	91.4	29.988	0.00	0.00	0.000	0.737	85.7	34	54.1	84.8	1405	1	100.0	60
08/17/19	12:00 p	84.6	84.6	82.7	76	76.2	5.0	WNW	5.00	11.0	ENE	84.6	94.2	94.2	29.997	0.00	0.00	0.000	0.817	86.6	36	56.5	86.1	1405	1	100.0	60
08/17/19	1:00 p	86.5	86.5	84.6	74	77.2	6.0	NW	6.00	14.0	NE	86.5	97.9	97.9	30.001	0.00	0.00	0.000	0.896	87.5	35	56.5	86.5	1405	1	100.0	60
08/17/19	2:00 p	87.1	87.2	86.5	70	76.1	6.0	NW	6.00	15.0	N	87.1	97.6	97.6	29.979	0.00	0.00	0.000	0.921	89.7	38	60.7	90.3	1404	1	100.0	60
08/17/19	3:00 p	88.7	88.7	87.0	63	74.5	5.0	WSW	5.00	10.0	NW	88.7	97.9	97.9	29.964	0.00	0.00	0.000	0.987	90.1	35	58.8	90.0	1405	1	100.0	60
08/17/19	4:00 p	89.4	89.4	89.4	66	76.5	5.0	S	5.00	12.0	S	89.4	101.4	101.4	29.965	0.00	0.00	0.000	1.017	91.9	37	61.9	93.2	1405	1	100.0	60
08/17/19	5:00 p	89.4	89.4	89.4	71	78.8	6.0	SSW	6.00	17.0	SSE	89.4	104.4	104.4	29.954	0.00	0.00	0.000	1.017	90.9	34	58.7	90.9	1405	1	100.0	60
08/17/19	6:00 p	88.7	89.4	88.7	72	78.5	5.0	S	5.00	13.0	ESE	88.7	102.5	102.5	29.970	0.00	0.00	0.000	0.987	91.8	35	60.3	92.3	1405	1	100.0	60
08/17/19	7:00 p	86.3	88.7	86.3	76	77.8	6.0	S	6.00	17.0	SSE	86.3	98.2	98.2	29.961	0.00	0.00	0.000	0.888	90.1	33	57.1	89.7	1405	1	100.0	60
08/17/19	8:00 p	84.3	86.3	84.2	82	78.2	5.0	SW	5.00	14.0	WSW	84.3	95.8	95.8	29.962	0.00	0.00	0.000	0.804	87.8	33	55.1	86.2	1405	1	100.0	60
08/17/19	9:00 p	82.4	84.2	82.4	87	78.1	5.0	SSW	5.00	13.0	WSW	82.4	92.2	92.2	29.957	0.00	0.00	0.000	0.725	88.6	33	55.8	87.2	1405	1	100.0	60
08/17/19	10:00 p	81.2	82.4	81.2	89	77.6	5.0	S	5.00	11.0	SW	81.2	89.5	89.5	29.962	0.00	0.00	0.000	0.675	86.7	34	55.0	85.7	1405	1	100.0	60
08/17/19	11:00 p	79.9	81.2	79.9	91	77.0	5.0	S	5.00	11.0	S	79.9	86.8	86.8	29.989	0.00	0.00	0.000	0.621	87.0	33	54.4	85.8	1405	1	100.0	60
08/18/19	12:00 a	78.5	80.0	78.5	90	75.3	5.0	SSW	5.00	16.0	SSE	78.5	83.8	83.8	30.002	0.00	0.00	0.000	0.563	85.5	34	53.9	84.6	1405	1	100.0	60
SUNDAY			Temp	Hi	Low	Out	Dew	Wind	Wind	Wind	Hi	Hi	Wind	Heat	THW			Rain	Heat	Cool	In 	In	In 	In 	Wind	Wind	ISS 	Arc.
Date		Time	Out	Temp	Temp	Hum	Pt.	Speed	Dir	Run	Speed	Dir	Chill	Index	Index	Bar  	Rain	Rate	D-D 	D-D 	Temp	Hum	Dew	Heat	Samp	Tx 	Recept	Int.
08/18/19	1:00 a	77.3	78.5	77.3	91	74.5	4.0	SW	4.00	7.0	SW	77.3	81.6	81.6	30.007	0.00	0.00	0.000	0.513	86.1	33	53.6	85.0	1404	1	100.0	60
08/18/19	2:00 a	76.2	77.3	76.2	92	73.7	4.0	SW	4.00	11.0	SSE	76.2	80.0	80.0	30.000	0.00	0.00	0.000	0.467	84.3	34	52.9	83.4	1404	1	100.0	60
08/18/19	3:00 a	75.0	76.2	75.0	94	73.2	4.0	SSE	4.00	10.0	SSE	75.0	78.6	78.6	29.982	0.00	0.00	0.000	0.417	84.9	34	53.4	83.9	1405	1	100.0	60
08/18/19	4:00 a	74.0	75.0	74.0	95	72.5	0.0	SSW	0.00	5.0	SSW	74.0	77.0	77.0	29.972	0.00	0.00	0.000	0.375	84.9	35	54.2	84.1	1405	1	100.0	60
08/18/19	5:00 a	73.3	74.0	73.3	96	72.1	4.0	SSW	4.00	10.0	SSE	73.3	76.3	76.3	29.967	0.00	0.00	0.000	0.346	84.6	35	53.9	83.8	1405	1	100.0	60
08/18/19	6:00 a	72.9	73.3	72.9	97	72.0	0.0	S	0.00	6.0	SSE	72.9	76.0	76.0	29.991	0.00	0.00	0.000	0.329	83.0	34	51.7	81.6	1405	1	100.0	60
08/18/19	7:00 a	73.0	73.0	72.8	98	72.4	4.0	SE	4.00	6.0	SE	73.0	76.3	76.3	29.998	0.00	0.00	0.000	0.333	83.2	35	52.7	82.1	1405	1	100.0	60
08/18/19	8:00 a	74.2	74.2	73.0	99	73.9	4.0	S	4.00	7.0	S	74.2	77.7	77.7	29.991	0.00	0.00	0.000	0.383	83.5	36	53.7	82.7	1405	1	100.0	60
08/18/19	9:00 a	76.2	76.2	74.2	99	75.9	4.0	NNE	4.00	6.0	S	76.2	80.6	80.6	30.004	0.00	0.00	0.000	0.467	81.1	34	50.1	79.5	1405	1	100.0	60

			Temp	Hi	Low	Out	Dew	Wind	Wind	Wind	Hi	Hi	Wind	Heat	THW			Rain	Heat	Cool	In 	In	In 	In 	Wind	Wind	ISS 	Arc.
Date		Time	Out	Temp	Temp	Hum	Pt.	Speed	Dir	Run	Speed	Dir	Chill	Index	Index	Bar  	Rain	Rate	D-D 	D-D 	Temp	Hum	Dew	Heat	Samp	Tx 	Recept	Int.
-----------------------------------------------------------------------------------------------------------------------------------------------------------------------------------